<?xml version="1.0" encoding="UTF-8" standalone="no" ?>
<gpx xmlns="http://www.topografix.com/GPX/1/1" xmlns:xsi="http://www.w3.org/2001/XMLSchema-instance" xsi:schemaLocation="http://www.topografix.com/GPX/1/1 http://www.topografix.com/GPX/1/1/gpx.xsd" version="1.1" creator="VisuGPX - https://www.visugpx.com">
  <metadata>
    <name>Arceus 15 aout 2021</name>
  </metadata>
  <trk>
    <name><![CDATA[Tracé actuel: 14 AOU 2021 23:54]]></name>
    <trkseg>
      <trkpt lat="46.15725" lon="-1.15305">
        <ele>-54.18</ele>
        <time>2021-08-15T10:33:35Z</time>
      </trkpt>
      <trkpt lat="46.15724" lon="-1.15306">
        <ele>-54.18</ele>
        <time>2021-08-15T10:33:36Z</time>
      </trkpt>
      <trkpt lat="46.15723" lon="-1.15307">
        <ele>-50.81</ele>
        <time>2021-08-15T10:33:39Z</time>
      </trkpt>
      <trkpt lat="46.15724" lon="-1.15306">
        <ele>-49.37</ele>
        <time>2021-08-15T10:33:38Z</time>
      </trkpt>
      <trkpt lat="46.15724" lon="-1.15306">
        <ele>-46.49</ele>
        <time>2021-08-15T10:33:41Z</time>
      </trkpt>
      <trkpt lat="46.15723" lon="-1.15304">
        <ele>-42.64</ele>
        <time>2021-08-15T10:33:45Z</time>
      </trkpt>
      <trkpt lat="46.15721" lon="-1.15306">
        <ele>-39.28</ele>
        <time>2021-08-15T10:33:49Z</time>
      </trkpt>
      <trkpt lat="46.15718" lon="-1.1531">
        <ele>-35.91</ele>
        <time>2021-08-15T10:33:53Z</time>
      </trkpt>
      <trkpt lat="46.15717" lon="-1.15309">
        <ele>-32.55</ele>
        <time>2021-08-15T10:33:56Z</time>
      </trkpt>
      <trkpt lat="46.15718" lon="-1.15309">
        <ele>-28.7</ele>
        <time>2021-08-15T10:33:59Z</time>
      </trkpt>
      <trkpt lat="46.15718" lon="-1.1531">
        <ele>-28.7</ele>
        <time>2021-08-15T10:34:00Z</time>
      </trkpt>
      <trkpt lat="46.15719" lon="-1.15309">
        <ele>-24.86</ele>
        <time>2021-08-15T10:34:04Z</time>
      </trkpt>
      <trkpt lat="46.15718" lon="-1.15309">
        <ele>-21.97</ele>
        <time>2021-08-15T10:34:08Z</time>
      </trkpt>
      <trkpt lat="46.15718" lon="-1.15308">
        <ele>-18.61</ele>
        <time>2021-08-15T10:34:13Z</time>
      </trkpt>
      <trkpt lat="46.15718" lon="-1.15308">
        <ele>-15.72</ele>
        <time>2021-08-15T10:34:19Z</time>
      </trkpt>
      <trkpt lat="46.15719" lon="-1.15307">
        <ele>-12.36</ele>
        <time>2021-08-15T10:34:26Z</time>
      </trkpt>
      <trkpt lat="46.15723" lon="-1.15306">
        <ele>-9.48</ele>
        <time>2021-08-15T10:34:36Z</time>
      </trkpt>
      <trkpt lat="46.15723" lon="-1.15308">
        <ele>-6.59</ele>
        <time>2021-08-15T10:34:52Z</time>
      </trkpt>
      <trkpt lat="46.15723" lon="-1.15308">
        <ele>-3.71</ele>
        <time>2021-08-15T10:35:20Z</time>
      </trkpt>
      <trkpt lat="46.15721" lon="-1.1531">
        <ele>-3.23</ele>
        <time>2021-08-15T10:35:53Z</time>
      </trkpt>
      <trkpt lat="46.15723" lon="-1.1531">
        <ele>-3.23</ele>
        <time>2021-08-15T10:36:21Z</time>
      </trkpt>
      <trkpt lat="46.15717" lon="-1.15315">
        <ele>-3.23</ele>
        <time>2021-08-15T10:36:49Z</time>
      </trkpt>
      <trkpt lat="46.15716" lon="-1.15317">
        <ele>-2.75</ele>
        <time>2021-08-15T10:37:10Z</time>
      </trkpt>
      <trkpt lat="46.15713" lon="-1.15308">
        <ele>-2.75</ele>
        <time>2021-08-15T10:37:29Z</time>
      </trkpt>
      <trkpt lat="46.15705" lon="-1.15284">
        <ele>-4.19</ele>
        <time>2021-08-15T10:37:46Z</time>
      </trkpt>
      <trkpt lat="46.15696" lon="-1.15263">
        <ele>-4.19</ele>
        <time>2021-08-15T10:38:11Z</time>
      </trkpt>
      <trkpt lat="46.15694" lon="-1.15241">
        <ele>-4.19</ele>
        <time>2021-08-15T10:38:36Z</time>
      </trkpt>
      <trkpt lat="46.15692" lon="-1.15234">
        <ele>-4.19</ele>
        <time>2021-08-15T10:38:59Z</time>
      </trkpt>
      <trkpt lat="46.15671" lon="-1.15245">
        <ele>-4.19</ele>
        <time>2021-08-15T10:39:25Z</time>
      </trkpt>
      <trkpt lat="46.15649" lon="-1.15277">
        <ele>-4.19</ele>
        <time>2021-08-15T10:39:56Z</time>
      </trkpt>
      <trkpt lat="46.15632" lon="-1.15304">
        <ele>-4.19</ele>
        <time>2021-08-15T10:40:21Z</time>
      </trkpt>
      <trkpt lat="46.15613" lon="-1.1533">
        <ele>-4.19</ele>
        <time>2021-08-15T10:40:44Z</time>
      </trkpt>
      <trkpt lat="46.1559" lon="-1.15359">
        <ele>-4.19</ele>
        <time>2021-08-15T10:41:08Z</time>
      </trkpt>
      <trkpt lat="46.15569" lon="-1.1538">
        <ele>-4.19</ele>
        <time>2021-08-15T10:41:26Z</time>
      </trkpt>
      <trkpt lat="46.15537" lon="-1.15415">
        <ele>-3.71</ele>
        <time>2021-08-15T10:41:53Z</time>
      </trkpt>
      <trkpt lat="46.15505" lon="-1.15449">
        <ele>-3.71</ele>
        <time>2021-08-15T10:42:22Z</time>
      </trkpt>
      <trkpt lat="46.15477" lon="-1.15498">
        <ele>-2.75</ele>
        <time>2021-08-15T10:42:51Z</time>
      </trkpt>
      <trkpt lat="46.15457" lon="-1.15547">
        <ele>-2.75</ele>
        <time>2021-08-15T10:43:17Z</time>
      </trkpt>
      <trkpt lat="46.15441" lon="-1.15583">
        <ele>-2.27</ele>
        <time>2021-08-15T10:43:40Z</time>
      </trkpt>
      <trkpt lat="46.15425" lon="-1.15621">
        <ele>-2.27</ele>
        <time>2021-08-15T10:44:02Z</time>
      </trkpt>
      <trkpt lat="46.15409" lon="-1.15664">
        <ele>-3.71</ele>
        <time>2021-08-15T10:44:24Z</time>
      </trkpt>
      <trkpt lat="46.15397" lon="-1.15705">
        <ele>-3.71</ele>
        <time>2021-08-15T10:44:45Z</time>
      </trkpt>
      <trkpt lat="46.15382" lon="-1.15748">
        <ele>-3.71</ele>
        <time>2021-08-15T10:45:07Z</time>
      </trkpt>
      <trkpt lat="46.15368" lon="-1.15789">
        <ele>-3.71</ele>
        <time>2021-08-15T10:45:28Z</time>
      </trkpt>
      <trkpt lat="46.1535" lon="-1.15831">
        <ele>-3.71</ele>
        <time>2021-08-15T10:45:50Z</time>
      </trkpt>
      <trkpt lat="46.15329" lon="-1.1587">
        <ele>-3.71</ele>
        <time>2021-08-15T10:46:12Z</time>
      </trkpt>
      <trkpt lat="46.15311" lon="-1.15903">
        <ele>-3.23</ele>
        <time>2021-08-15T10:46:31Z</time>
      </trkpt>
      <trkpt lat="46.15293" lon="-1.15938">
        <ele>-2.27</ele>
        <time>2021-08-15T10:46:51Z</time>
      </trkpt>
      <trkpt lat="46.15275" lon="-1.15974">
        <ele>-2.27</ele>
        <time>2021-08-15T10:47:11Z</time>
      </trkpt>
      <trkpt lat="46.15259" lon="-1.16011">
        <ele>-2.27</ele>
        <time>2021-08-15T10:47:30Z</time>
      </trkpt>
      <trkpt lat="46.15238" lon="-1.16051">
        <ele>-2.27</ele>
        <time>2021-08-15T10:47:53Z</time>
      </trkpt>
      <trkpt lat="46.15225" lon="-1.16078">
        <ele>-2.27</ele>
        <time>2021-08-15T10:48:07Z</time>
      </trkpt>
      <trkpt lat="46.15206" lon="-1.16117">
        <ele>-2.27</ele>
        <time>2021-08-15T10:48:28Z</time>
      </trkpt>
      <trkpt lat="46.1519" lon="-1.16153">
        <ele>-2.27</ele>
        <time>2021-08-15T10:48:47Z</time>
      </trkpt>
      <trkpt lat="46.1517" lon="-1.16193">
        <ele>-2.27</ele>
        <time>2021-08-15T10:49:09Z</time>
      </trkpt>
      <trkpt lat="46.15151" lon="-1.16233">
        <ele>-2.27</ele>
        <time>2021-08-15T10:49:28Z</time>
      </trkpt>
      <trkpt lat="46.1513" lon="-1.16288">
        <ele>-2.27</ele>
        <time>2021-08-15T10:49:52Z</time>
      </trkpt>
      <trkpt lat="46.15107" lon="-1.16337">
        <ele>-2.27</ele>
        <time>2021-08-15T10:50:15Z</time>
      </trkpt>
      <trkpt lat="46.15086" lon="-1.16386">
        <ele>-2.27</ele>
        <time>2021-08-15T10:50:36Z</time>
      </trkpt>
      <trkpt lat="46.15069" lon="-1.16433">
        <ele>-2.27</ele>
        <time>2021-08-15T10:50:56Z</time>
      </trkpt>
      <trkpt lat="46.15045" lon="-1.16491">
        <ele>-2.27</ele>
        <time>2021-08-15T10:51:20Z</time>
      </trkpt>
      <trkpt lat="46.15023" lon="-1.16546">
        <ele>-2.27</ele>
        <time>2021-08-15T10:51:43Z</time>
      </trkpt>
      <trkpt lat="46.14999" lon="-1.16607">
        <ele>-2.27</ele>
        <time>2021-08-15T10:52:09Z</time>
      </trkpt>
      <trkpt lat="46.14978" lon="-1.16656">
        <ele>-2.27</ele>
        <time>2021-08-15T10:52:31Z</time>
      </trkpt>
      <trkpt lat="46.14959" lon="-1.16709">
        <ele>-2.27</ele>
        <time>2021-08-15T10:52:54Z</time>
      </trkpt>
      <trkpt lat="46.14932" lon="-1.16777">
        <ele>-2.27</ele>
        <time>2021-08-15T10:53:23Z</time>
      </trkpt>
      <trkpt lat="46.14909" lon="-1.1684">
        <ele>-2.75</ele>
        <time>2021-08-15T10:53:49Z</time>
      </trkpt>
      <trkpt lat="46.14892" lon="-1.16889">
        <ele>-2.75</ele>
        <time>2021-08-15T10:54:11Z</time>
      </trkpt>
      <trkpt lat="46.14874" lon="-1.16949">
        <ele>-2.75</ele>
        <time>2021-08-15T10:54:35Z</time>
      </trkpt>
      <trkpt lat="46.14853" lon="-1.17001">
        <ele>-2.75</ele>
        <time>2021-08-15T10:54:58Z</time>
      </trkpt>
      <trkpt lat="46.14823" lon="-1.17036">
        <ele>-2.75</ele>
        <time>2021-08-15T10:55:17Z</time>
      </trkpt>
      <trkpt lat="46.14819" lon="-1.17069">
        <ele>-2.75</ele>
        <time>2021-08-15T10:55:31Z</time>
      </trkpt>
      <trkpt lat="46.14806" lon="-1.1711">
        <ele>-2.75</ele>
        <time>2021-08-15T10:55:49Z</time>
      </trkpt>
      <trkpt lat="46.14785" lon="-1.17154">
        <ele>-2.75</ele>
        <time>2021-08-15T10:56:10Z</time>
      </trkpt>
      <trkpt lat="46.14789" lon="-1.17194">
        <ele>-2.75</ele>
        <time>2021-08-15T10:56:27Z</time>
      </trkpt>
      <trkpt lat="46.14785" lon="-1.17239">
        <ele>-2.75</ele>
        <time>2021-08-15T10:56:45Z</time>
      </trkpt>
      <trkpt lat="46.14762" lon="-1.17282">
        <ele>-2.75</ele>
        <time>2021-08-15T10:57:02Z</time>
      </trkpt>
      <trkpt lat="46.14735" lon="-1.17328">
        <ele>-2.75</ele>
        <time>2021-08-15T10:57:21Z</time>
      </trkpt>
      <trkpt lat="46.14711" lon="-1.17368">
        <ele>-2.75</ele>
        <time>2021-08-15T10:57:38Z</time>
      </trkpt>
      <trkpt lat="46.14684" lon="-1.17413">
        <ele>-2.75</ele>
        <time>2021-08-15T10:57:56Z</time>
      </trkpt>
      <trkpt lat="46.14661" lon="-1.17457">
        <ele>-2.27</ele>
        <time>2021-08-15T10:58:12Z</time>
      </trkpt>
      <trkpt lat="46.14642" lon="-1.17488">
        <ele>-3.71</ele>
        <time>2021-08-15T10:58:25Z</time>
      </trkpt>
      <trkpt lat="46.14619" lon="-1.17505">
        <ele>-3.71</ele>
        <time>2021-08-15T10:58:44Z</time>
      </trkpt>
      <trkpt lat="46.14603" lon="-1.17512">
        <ele>-3.71</ele>
        <time>2021-08-15T10:59:01Z</time>
      </trkpt>
      <trkpt lat="46.14592" lon="-1.17517">
        <ele>-1.79</ele>
        <time>2021-08-15T10:59:14Z</time>
      </trkpt>
      <trkpt lat="46.14576" lon="-1.1753">
        <ele>-3.23</ele>
        <time>2021-08-15T10:59:31Z</time>
      </trkpt>
      <trkpt lat="46.14567" lon="-1.17537">
        <ele>-3.23</ele>
        <time>2021-08-15T10:59:41Z</time>
      </trkpt>
      <trkpt lat="46.14545" lon="-1.17552">
        <ele>-3.23</ele>
        <time>2021-08-15T10:59:59Z</time>
      </trkpt>
      <trkpt lat="46.14535" lon="-1.17562">
        <ele>-2.27</ele>
        <time>2021-08-15T11:00:09Z</time>
      </trkpt>
      <trkpt lat="46.14526" lon="-1.17566">
        <ele>-3.23</ele>
        <time>2021-08-15T11:00:19Z</time>
      </trkpt>
      <trkpt lat="46.14503" lon="-1.17574">
        <ele>-3.23</ele>
        <time>2021-08-15T11:00:36Z</time>
      </trkpt>
      <trkpt lat="46.1448" lon="-1.17588">
        <ele>-3.71</ele>
        <time>2021-08-15T11:00:52Z</time>
      </trkpt>
      <trkpt lat="46.14455" lon="-1.17607">
        <ele>-2.27</ele>
        <time>2021-08-15T11:01:09Z</time>
      </trkpt>
      <trkpt lat="46.14434" lon="-1.17639">
        <ele>-2.27</ele>
        <time>2021-08-15T11:01:26Z</time>
      </trkpt>
      <trkpt lat="46.14418" lon="-1.17669">
        <ele>-2.27</ele>
        <time>2021-08-15T11:01:44Z</time>
      </trkpt>
      <trkpt lat="46.14401" lon="-1.17692">
        <ele>-1.79</ele>
        <time>2021-08-15T11:02:01Z</time>
      </trkpt>
      <trkpt lat="46.14397" lon="-1.17699">
        <ele>-3.23</ele>
        <time>2021-08-15T11:02:05Z</time>
      </trkpt>
      <trkpt lat="46.14383" lon="-1.17723">
        <ele>-3.71</ele>
        <time>2021-08-15T11:02:18Z</time>
      </trkpt>
      <trkpt lat="46.14369" lon="-1.17747">
        <ele>-3.71</ele>
        <time>2021-08-15T11:02:32Z</time>
      </trkpt>
      <trkpt lat="46.14361" lon="-1.17772">
        <ele>-3.71</ele>
        <time>2021-08-15T11:02:49Z</time>
      </trkpt>
      <trkpt lat="46.14349" lon="-1.17795">
        <ele>-3.71</ele>
        <time>2021-08-15T11:03:09Z</time>
      </trkpt>
      <trkpt lat="46.14335" lon="-1.17825">
        <ele>-2.27</ele>
        <time>2021-08-15T11:03:26Z</time>
      </trkpt>
      <trkpt lat="46.14323" lon="-1.17847">
        <ele>-2.27</ele>
        <time>2021-08-15T11:03:40Z</time>
      </trkpt>
      <trkpt lat="46.14307" lon="-1.17883">
        <ele>-2.27</ele>
        <time>2021-08-15T11:03:57Z</time>
      </trkpt>
      <trkpt lat="46.14296" lon="-1.1791">
        <ele>-2.27</ele>
        <time>2021-08-15T11:04:09Z</time>
      </trkpt>
      <trkpt lat="46.1429" lon="-1.17925">
        <ele>-2.27</ele>
        <time>2021-08-15T11:04:16Z</time>
      </trkpt>
      <trkpt lat="46.14275" lon="-1.17957">
        <ele>-1.79</ele>
        <time>2021-08-15T11:04:32Z</time>
      </trkpt>
      <trkpt lat="46.14259" lon="-1.17995">
        <ele>-1.79</ele>
        <time>2021-08-15T11:04:49Z</time>
      </trkpt>
      <trkpt lat="46.14246" lon="-1.18027">
        <ele>-1.79</ele>
        <time>2021-08-15T11:05:03Z</time>
      </trkpt>
      <trkpt lat="46.14232" lon="-1.18068">
        <ele>-1.79</ele>
        <time>2021-08-15T11:05:21Z</time>
      </trkpt>
      <trkpt lat="46.1422" lon="-1.18106">
        <ele>-1.79</ele>
        <time>2021-08-15T11:05:36Z</time>
      </trkpt>
      <trkpt lat="46.14208" lon="-1.18151">
        <ele>-1.3</ele>
        <time>2021-08-15T11:05:54Z</time>
      </trkpt>
      <trkpt lat="46.14198" lon="-1.18188">
        <ele>-2.27</ele>
        <time>2021-08-15T11:06:09Z</time>
      </trkpt>
      <trkpt lat="46.14189" lon="-1.18231">
        <ele>-2.27</ele>
        <time>2021-08-15T11:06:26Z</time>
      </trkpt>
      <trkpt lat="46.14181" lon="-1.1826">
        <ele>-2.75</ele>
        <time>2021-08-15T11:06:41Z</time>
      </trkpt>
      <trkpt lat="46.14168" lon="-1.18291">
        <ele>-2.75</ele>
        <time>2021-08-15T11:06:58Z</time>
      </trkpt>
      <trkpt lat="46.14163" lon="-1.18307">
        <ele>-2.75</ele>
        <time>2021-08-15T11:07:08Z</time>
      </trkpt>
      <trkpt lat="46.14149" lon="-1.18334">
        <ele>-2.75</ele>
        <time>2021-08-15T11:07:29Z</time>
      </trkpt>
      <trkpt lat="46.14134" lon="-1.18363">
        <ele>-2.75</ele>
        <time>2021-08-15T11:07:48Z</time>
      </trkpt>
      <trkpt lat="46.1412" lon="-1.18393">
        <ele>-2.75</ele>
        <time>2021-08-15T11:08:06Z</time>
      </trkpt>
      <trkpt lat="46.14108" lon="-1.18429">
        <ele>-2.75</ele>
        <time>2021-08-15T11:08:23Z</time>
      </trkpt>
      <trkpt lat="46.14097" lon="-1.18463">
        <ele>-2.75</ele>
        <time>2021-08-15T11:08:39Z</time>
      </trkpt>
      <trkpt lat="46.14084" lon="-1.18499">
        <ele>-2.75</ele>
        <time>2021-08-15T11:08:56Z</time>
      </trkpt>
      <trkpt lat="46.14074" lon="-1.18529">
        <ele>-2.75</ele>
        <time>2021-08-15T11:09:13Z</time>
      </trkpt>
      <trkpt lat="46.14063" lon="-1.18562">
        <ele>-3.71</ele>
        <time>2021-08-15T11:09:30Z</time>
      </trkpt>
      <trkpt lat="46.14052" lon="-1.18592">
        <ele>-3.23</ele>
        <time>2021-08-15T11:09:47Z</time>
      </trkpt>
      <trkpt lat="46.14049" lon="-1.18601">
        <ele>-3.23</ele>
        <time>2021-08-15T11:09:52Z</time>
      </trkpt>
      <trkpt lat="46.14045" lon="-1.18605">
        <ele>-3.71</ele>
        <time>2021-08-15T11:09:56Z</time>
      </trkpt>
      <trkpt lat="46.1404" lon="-1.18616">
        <ele>-3.23</ele>
        <time>2021-08-15T11:10:06Z</time>
      </trkpt>
      <trkpt lat="46.14024" lon="-1.18633">
        <ele>-3.23</ele>
        <time>2021-08-15T11:10:20Z</time>
      </trkpt>
      <trkpt lat="46.14006" lon="-1.18662">
        <ele>-3.23</ele>
        <time>2021-08-15T11:10:36Z</time>
      </trkpt>
      <trkpt lat="46.13991" lon="-1.18691">
        <ele>-3.23</ele>
        <time>2021-08-15T11:10:50Z</time>
      </trkpt>
      <trkpt lat="46.13978" lon="-1.18718">
        <ele>-2.27</ele>
        <time>2021-08-15T11:11:05Z</time>
      </trkpt>
      <trkpt lat="46.13967" lon="-1.18739">
        <ele>-2.27</ele>
        <time>2021-08-15T11:11:19Z</time>
      </trkpt>
      <trkpt lat="46.13952" lon="-1.18766">
        <ele>-2.27</ele>
        <time>2021-08-15T11:11:36Z</time>
      </trkpt>
      <trkpt lat="46.13938" lon="-1.1879">
        <ele>-2.27</ele>
        <time>2021-08-15T11:11:50Z</time>
      </trkpt>
      <trkpt lat="46.13925" lon="-1.18812">
        <ele>-2.27</ele>
        <time>2021-08-15T11:12:03Z</time>
      </trkpt>
      <trkpt lat="46.13911" lon="-1.18847">
        <ele>-2.27</ele>
        <time>2021-08-15T11:12:21Z</time>
      </trkpt>
      <trkpt lat="46.13897" lon="-1.18876">
        <ele>-2.27</ele>
        <time>2021-08-15T11:12:37Z</time>
      </trkpt>
      <trkpt lat="46.13886" lon="-1.189">
        <ele>-2.27</ele>
        <time>2021-08-15T11:12:50Z</time>
      </trkpt>
      <trkpt lat="46.13868" lon="-1.18944">
        <ele>-2.27</ele>
        <time>2021-08-15T11:13:10Z</time>
      </trkpt>
      <trkpt lat="46.13854" lon="-1.1898">
        <ele>-2.27</ele>
        <time>2021-08-15T11:13:26Z</time>
      </trkpt>
      <trkpt lat="46.13838" lon="-1.19016">
        <ele>-2.27</ele>
        <time>2021-08-15T11:13:44Z</time>
      </trkpt>
      <trkpt lat="46.13827" lon="-1.19039">
        <ele>-2.27</ele>
        <time>2021-08-15T11:13:57Z</time>
      </trkpt>
      <trkpt lat="46.13822" lon="-1.19052">
        <ele>-2.27</ele>
        <time>2021-08-15T11:14:07Z</time>
      </trkpt>
      <trkpt lat="46.13821" lon="-1.19054">
        <ele>-2.27</ele>
        <time>2021-08-15T11:14:09Z</time>
      </trkpt>
      <trkpt lat="46.13811" lon="-1.19069">
        <ele>-2.27</ele>
        <time>2021-08-15T11:14:23Z</time>
      </trkpt>
      <trkpt lat="46.13793" lon="-1.191">
        <ele>-2.27</ele>
        <time>2021-08-15T11:14:39Z</time>
      </trkpt>
      <trkpt lat="46.13781" lon="-1.19134">
        <ele>-2.27</ele>
        <time>2021-08-15T11:14:56Z</time>
      </trkpt>
      <trkpt lat="46.13767" lon="-1.19161">
        <ele>-2.27</ele>
        <time>2021-08-15T11:15:12Z</time>
      </trkpt>
      <trkpt lat="46.13756" lon="-1.1918">
        <ele>-3.23</ele>
        <time>2021-08-15T11:15:25Z</time>
      </trkpt>
      <trkpt lat="46.13745" lon="-1.19197">
        <ele>-3.23</ele>
        <time>2021-08-15T11:15:38Z</time>
      </trkpt>
      <trkpt lat="46.13734" lon="-1.19218">
        <ele>-3.23</ele>
        <time>2021-08-15T11:15:52Z</time>
      </trkpt>
      <trkpt lat="46.13722" lon="-1.19244">
        <ele>-3.23</ele>
        <time>2021-08-15T11:16:08Z</time>
      </trkpt>
      <trkpt lat="46.13711" lon="-1.19268">
        <ele>-3.23</ele>
        <time>2021-08-15T11:16:22Z</time>
      </trkpt>
      <trkpt lat="46.13697" lon="-1.19297">
        <ele>-3.23</ele>
        <time>2021-08-15T11:16:37Z</time>
      </trkpt>
      <trkpt lat="46.13684" lon="-1.19328">
        <ele>-3.23</ele>
        <time>2021-08-15T11:16:54Z</time>
      </trkpt>
      <trkpt lat="46.13671" lon="-1.19352">
        <ele>-3.23</ele>
        <time>2021-08-15T11:17:09Z</time>
      </trkpt>
      <trkpt lat="46.13661" lon="-1.19381">
        <ele>-3.23</ele>
        <time>2021-08-15T11:17:24Z</time>
      </trkpt>
      <trkpt lat="46.13652" lon="-1.19403">
        <ele>-3.23</ele>
        <time>2021-08-15T11:17:36Z</time>
      </trkpt>
      <trkpt lat="46.13643" lon="-1.1942">
        <ele>-3.23</ele>
        <time>2021-08-15T11:17:48Z</time>
      </trkpt>
      <trkpt lat="46.13633" lon="-1.19449">
        <ele>-3.23</ele>
        <time>2021-08-15T11:18:01Z</time>
      </trkpt>
      <trkpt lat="46.13621" lon="-1.19472">
        <ele>-3.71</ele>
        <time>2021-08-15T11:18:14Z</time>
      </trkpt>
      <trkpt lat="46.13608" lon="-1.19493">
        <ele>-3.23</ele>
        <time>2021-08-15T11:18:28Z</time>
      </trkpt>
      <trkpt lat="46.13595" lon="-1.19515">
        <ele>-3.23</ele>
        <time>2021-08-15T11:18:43Z</time>
      </trkpt>
      <trkpt lat="46.13583" lon="-1.19536">
        <ele>-3.23</ele>
        <time>2021-08-15T11:18:57Z</time>
      </trkpt>
      <trkpt lat="46.13572" lon="-1.19547">
        <ele>-2.27</ele>
        <time>2021-08-15T11:19:06Z</time>
      </trkpt>
      <trkpt lat="46.13556" lon="-1.19581">
        <ele>-2.27</ele>
        <time>2021-08-15T11:19:22Z</time>
      </trkpt>
      <trkpt lat="46.13551" lon="-1.1959">
        <ele>-3.23</ele>
        <time>2021-08-15T11:19:35Z</time>
      </trkpt>
      <trkpt lat="46.13549" lon="-1.1959">
        <ele>-3.23</ele>
        <time>2021-08-15T11:19:41Z</time>
      </trkpt>
      <trkpt lat="46.13546" lon="-1.1959">
        <ele>-1.79</ele>
        <time>2021-08-15T11:19:43Z</time>
      </trkpt>
      <trkpt lat="46.13541" lon="-1.19592">
        <ele>-1.79</ele>
        <time>2021-08-15T11:19:46Z</time>
      </trkpt>
      <trkpt lat="46.13524" lon="-1.19606">
        <ele>-3.23</ele>
        <time>2021-08-15T11:19:55Z</time>
      </trkpt>
      <trkpt lat="46.13496" lon="-1.1964">
        <ele>-3.23</ele>
        <time>2021-08-15T11:20:13Z</time>
      </trkpt>
      <trkpt lat="46.13479" lon="-1.19668">
        <ele>-3.71</ele>
        <time>2021-08-15T11:20:29Z</time>
      </trkpt>
      <trkpt lat="46.13477" lon="-1.19673">
        <ele>-3.71</ele>
        <time>2021-08-15T11:20:32Z</time>
      </trkpt>
      <trkpt lat="46.13473" lon="-1.19683">
        <ele>-3.71</ele>
        <time>2021-08-15T11:20:41Z</time>
      </trkpt>
      <trkpt lat="46.13464" lon="-1.19686">
        <ele>-2.27</ele>
        <time>2021-08-15T11:20:47Z</time>
      </trkpt>
      <trkpt lat="46.13455" lon="-1.19694">
        <ele>-2.27</ele>
        <time>2021-08-15T11:20:52Z</time>
      </trkpt>
      <trkpt lat="46.1343" lon="-1.19722">
        <ele>-2.27</ele>
        <time>2021-08-15T11:21:08Z</time>
      </trkpt>
      <trkpt lat="46.1341" lon="-1.19753">
        <ele>-2.27</ele>
        <time>2021-08-15T11:21:23Z</time>
      </trkpt>
      <trkpt lat="46.13401" lon="-1.19764">
        <ele>-2.27</ele>
        <time>2021-08-15T11:21:34Z</time>
      </trkpt>
      <trkpt lat="46.1339" lon="-1.19772">
        <ele>-2.27</ele>
        <time>2021-08-15T11:21:42Z</time>
      </trkpt>
      <trkpt lat="46.13361" lon="-1.19787">
        <ele>-2.27</ele>
        <time>2021-08-15T11:21:59Z</time>
      </trkpt>
      <trkpt lat="46.13336" lon="-1.19806">
        <ele>-2.27</ele>
        <time>2021-08-15T11:22:13Z</time>
      </trkpt>
      <trkpt lat="46.13333" lon="-1.1981">
        <ele>-2.27</ele>
        <time>2021-08-15T11:22:17Z</time>
      </trkpt>
      <trkpt lat="46.1332" lon="-1.19815">
        <ele>-2.27</ele>
        <time>2021-08-15T11:22:26Z</time>
      </trkpt>
      <trkpt lat="46.13313" lon="-1.1982">
        <ele>-2.27</ele>
        <time>2021-08-15T11:22:30Z</time>
      </trkpt>
      <trkpt lat="46.13293" lon="-1.19837">
        <ele>-2.27</ele>
        <time>2021-08-15T11:22:42Z</time>
      </trkpt>
      <trkpt lat="46.13273" lon="-1.19852">
        <ele>-2.27</ele>
        <time>2021-08-15T11:22:57Z</time>
      </trkpt>
      <trkpt lat="46.13255" lon="-1.19863">
        <ele>-2.27</ele>
        <time>2021-08-15T11:23:10Z</time>
      </trkpt>
      <trkpt lat="46.13236" lon="-1.19872">
        <ele>-2.27</ele>
        <time>2021-08-15T11:23:22Z</time>
      </trkpt>
      <trkpt lat="46.13217" lon="-1.19884">
        <ele>-2.27</ele>
        <time>2021-08-15T11:23:33Z</time>
      </trkpt>
      <trkpt lat="46.13193" lon="-1.19904">
        <ele>-1.79</ele>
        <time>2021-08-15T11:23:47Z</time>
      </trkpt>
      <trkpt lat="46.13172" lon="-1.1992">
        <ele>-1.79</ele>
        <time>2021-08-15T11:24:01Z</time>
      </trkpt>
      <trkpt lat="46.13154" lon="-1.19932">
        <ele>-1.79</ele>
        <time>2021-08-15T11:24:14Z</time>
      </trkpt>
      <trkpt lat="46.13134" lon="-1.19944">
        <ele>-1.79</ele>
        <time>2021-08-15T11:24:26Z</time>
      </trkpt>
      <trkpt lat="46.13112" lon="-1.19959">
        <ele>-1.79</ele>
        <time>2021-08-15T11:24:39Z</time>
      </trkpt>
      <trkpt lat="46.13095" lon="-1.19969">
        <ele>-1.79</ele>
        <time>2021-08-15T11:24:50Z</time>
      </trkpt>
      <trkpt lat="46.13072" lon="-1.19982">
        <ele>-1.79</ele>
        <time>2021-08-15T11:25:03Z</time>
      </trkpt>
      <trkpt lat="46.13051" lon="-1.19999">
        <ele>-1.79</ele>
        <time>2021-08-15T11:25:17Z</time>
      </trkpt>
      <trkpt lat="46.13033" lon="-1.20012">
        <ele>-1.79</ele>
        <time>2021-08-15T11:25:30Z</time>
      </trkpt>
      <trkpt lat="46.13011" lon="-1.20025">
        <ele>-1.79</ele>
        <time>2021-08-15T11:25:43Z</time>
      </trkpt>
      <trkpt lat="46.12988" lon="-1.20044">
        <ele>-1.79</ele>
        <time>2021-08-15T11:25:58Z</time>
      </trkpt>
      <trkpt lat="46.12984" lon="-1.20044">
        <ele>-1.79</ele>
        <time>2021-08-15T11:26:01Z</time>
      </trkpt>
      <trkpt lat="46.12959" lon="-1.20059">
        <ele>-1.79</ele>
        <time>2021-08-15T11:26:15Z</time>
      </trkpt>
      <trkpt lat="46.12943" lon="-1.20071">
        <ele>-1.79</ele>
        <time>2021-08-15T11:26:25Z</time>
      </trkpt>
      <trkpt lat="46.12924" lon="-1.20089">
        <ele>-1.79</ele>
        <time>2021-08-15T11:26:38Z</time>
      </trkpt>
      <trkpt lat="46.12911" lon="-1.201">
        <ele>-1.79</ele>
        <time>2021-08-15T11:26:48Z</time>
      </trkpt>
      <trkpt lat="46.12891" lon="-1.20113">
        <ele>-1.79</ele>
        <time>2021-08-15T11:27:01Z</time>
      </trkpt>
      <trkpt lat="46.12873" lon="-1.20128">
        <ele>-1.79</ele>
        <time>2021-08-15T11:27:13Z</time>
      </trkpt>
      <trkpt lat="46.12851" lon="-1.20144">
        <ele>-1.79</ele>
        <time>2021-08-15T11:27:27Z</time>
      </trkpt>
      <trkpt lat="46.12848" lon="-1.20145">
        <ele>-1.79</ele>
        <time>2021-08-15T11:27:29Z</time>
      </trkpt>
      <trkpt lat="46.12838" lon="-1.20151">
        <ele>-1.79</ele>
        <time>2021-08-15T11:27:35Z</time>
      </trkpt>
      <trkpt lat="46.12819" lon="-1.20162">
        <ele>-1.79</ele>
        <time>2021-08-15T11:27:48Z</time>
      </trkpt>
      <trkpt lat="46.12807" lon="-1.2017">
        <ele>-1.79</ele>
        <time>2021-08-15T11:27:56Z</time>
      </trkpt>
      <trkpt lat="46.128" lon="-1.20174">
        <ele>-1.79</ele>
        <time>2021-08-15T11:28:00Z</time>
      </trkpt>
      <trkpt lat="46.12777" lon="-1.2019">
        <ele>-1.79</ele>
        <time>2021-08-15T11:28:14Z</time>
      </trkpt>
      <trkpt lat="46.12765" lon="-1.20199">
        <ele>-1.79</ele>
        <time>2021-08-15T11:28:22Z</time>
      </trkpt>
      <trkpt lat="46.12745" lon="-1.20212">
        <ele>-1.79</ele>
        <time>2021-08-15T11:28:36Z</time>
      </trkpt>
      <trkpt lat="46.12722" lon="-1.20226">
        <ele>-1.79</ele>
        <time>2021-08-15T11:28:50Z</time>
      </trkpt>
      <trkpt lat="46.12718" lon="-1.20229">
        <ele>-1.79</ele>
        <time>2021-08-15T11:28:53Z</time>
      </trkpt>
      <trkpt lat="46.12702" lon="-1.20239">
        <ele>-1.3</ele>
        <time>2021-08-15T11:29:01Z</time>
      </trkpt>
      <trkpt lat="46.12679" lon="-1.20262">
        <ele>-1.3</ele>
        <time>2021-08-15T11:29:16Z</time>
      </trkpt>
      <trkpt lat="46.12676" lon="-1.20265">
        <ele>-1.3</ele>
        <time>2021-08-15T11:29:19Z</time>
      </trkpt>
      <trkpt lat="46.12667" lon="-1.20273">
        <ele>-1.3</ele>
        <time>2021-08-15T11:29:27Z</time>
      </trkpt>
      <trkpt lat="46.12655" lon="-1.20282">
        <ele>-1.3</ele>
        <time>2021-08-15T11:29:36Z</time>
      </trkpt>
      <trkpt lat="46.12633" lon="-1.20297">
        <ele>-1.3</ele>
        <time>2021-08-15T11:29:50Z</time>
      </trkpt>
      <trkpt lat="46.12611" lon="-1.20311">
        <ele>-1.3</ele>
        <time>2021-08-15T11:30:03Z</time>
      </trkpt>
      <trkpt lat="46.12588" lon="-1.20325">
        <ele>-1.3</ele>
        <time>2021-08-15T11:30:17Z</time>
      </trkpt>
      <trkpt lat="46.12566" lon="-1.20342">
        <ele>-1.3</ele>
        <time>2021-08-15T11:30:31Z</time>
      </trkpt>
      <trkpt lat="46.12558" lon="-1.20345">
        <ele>-1.3</ele>
        <time>2021-08-15T11:30:35Z</time>
      </trkpt>
      <trkpt lat="46.12538" lon="-1.20362">
        <ele>-1.3</ele>
        <time>2021-08-15T11:30:47Z</time>
      </trkpt>
      <trkpt lat="46.1252" lon="-1.20374">
        <ele>-1.3</ele>
        <time>2021-08-15T11:30:59Z</time>
      </trkpt>
      <trkpt lat="46.12514" lon="-1.20378">
        <ele>-1.3</ele>
        <time>2021-08-15T11:31:03Z</time>
      </trkpt>
      <trkpt lat="46.12492" lon="-1.20394">
        <ele>-1.3</ele>
        <time>2021-08-15T11:31:18Z</time>
      </trkpt>
      <trkpt lat="46.12479" lon="-1.204">
        <ele>-1.3</ele>
        <time>2021-08-15T11:31:26Z</time>
      </trkpt>
      <trkpt lat="46.12465" lon="-1.2041">
        <ele>-1.3</ele>
        <time>2021-08-15T11:31:34Z</time>
      </trkpt>
      <trkpt lat="46.12443" lon="-1.20423">
        <ele>-1.3</ele>
        <time>2021-08-15T11:31:48Z</time>
      </trkpt>
      <trkpt lat="46.12427" lon="-1.20436">
        <ele>-1.3</ele>
        <time>2021-08-15T11:31:59Z</time>
      </trkpt>
      <trkpt lat="46.12419" lon="-1.20444">
        <ele>-1.3</ele>
        <time>2021-08-15T11:32:05Z</time>
      </trkpt>
      <trkpt lat="46.124" lon="-1.20459">
        <ele>-1.3</ele>
        <time>2021-08-15T11:32:18Z</time>
      </trkpt>
      <trkpt lat="46.12386" lon="-1.2047">
        <ele>-1.3</ele>
        <time>2021-08-15T11:32:27Z</time>
      </trkpt>
      <trkpt lat="46.12377" lon="-1.20478">
        <ele>-1.3</ele>
        <time>2021-08-15T11:32:32Z</time>
      </trkpt>
      <trkpt lat="46.12354" lon="-1.20499">
        <ele>-2.75</ele>
        <time>2021-08-15T11:32:46Z</time>
      </trkpt>
      <trkpt lat="46.12336" lon="-1.20518">
        <ele>-2.27</ele>
        <time>2021-08-15T11:32:58Z</time>
      </trkpt>
      <trkpt lat="46.12316" lon="-1.20539">
        <ele>-2.27</ele>
        <time>2021-08-15T11:33:12Z</time>
      </trkpt>
      <trkpt lat="46.12298" lon="-1.20557">
        <ele>-2.27</ele>
        <time>2021-08-15T11:33:25Z</time>
      </trkpt>
      <trkpt lat="46.12278" lon="-1.20578">
        <ele>-2.27</ele>
        <time>2021-08-15T11:33:40Z</time>
      </trkpt>
      <trkpt lat="46.12256" lon="-1.20595">
        <ele>-2.27</ele>
        <time>2021-08-15T11:33:53Z</time>
      </trkpt>
      <trkpt lat="46.12245" lon="-1.20607">
        <ele>-2.27</ele>
        <time>2021-08-15T11:34:00Z</time>
      </trkpt>
      <trkpt lat="46.12231" lon="-1.20621">
        <ele>-2.27</ele>
        <time>2021-08-15T11:34:09Z</time>
      </trkpt>
      <trkpt lat="46.12213" lon="-1.20643">
        <ele>-2.27</ele>
        <time>2021-08-15T11:34:24Z</time>
      </trkpt>
      <trkpt lat="46.12211" lon="-1.20644">
        <ele>-2.75</ele>
        <time>2021-08-15T11:34:25Z</time>
      </trkpt>
      <trkpt lat="46.12204" lon="-1.2065">
        <ele>-2.27</ele>
        <time>2021-08-15T11:34:31Z</time>
      </trkpt>
      <trkpt lat="46.12177" lon="-1.20669">
        <ele>-2.27</ele>
        <time>2021-08-15T11:34:49Z</time>
      </trkpt>
      <trkpt lat="46.12162" lon="-1.20684">
        <ele>-3.23</ele>
        <time>2021-08-15T11:35:01Z</time>
      </trkpt>
      <trkpt lat="46.12139" lon="-1.20701">
        <ele>-2.75</ele>
        <time>2021-08-15T11:35:17Z</time>
      </trkpt>
      <trkpt lat="46.12133" lon="-1.20708">
        <ele>-2.75</ele>
        <time>2021-08-15T11:35:21Z</time>
      </trkpt>
      <trkpt lat="46.12116" lon="-1.20717">
        <ele>-2.75</ele>
        <time>2021-08-15T11:35:32Z</time>
      </trkpt>
      <trkpt lat="46.12109" lon="-1.20724">
        <ele>-2.75</ele>
        <time>2021-08-15T11:35:37Z</time>
      </trkpt>
      <trkpt lat="46.12105" lon="-1.20728">
        <ele>-2.75</ele>
        <time>2021-08-15T11:35:41Z</time>
      </trkpt>
      <trkpt lat="46.12096" lon="-1.20731">
        <ele>-2.75</ele>
        <time>2021-08-15T11:35:48Z</time>
      </trkpt>
      <trkpt lat="46.12075" lon="-1.20745">
        <ele>-2.75</ele>
        <time>2021-08-15T11:36:01Z</time>
      </trkpt>
      <trkpt lat="46.12065" lon="-1.20757">
        <ele>-2.75</ele>
        <time>2021-08-15T11:36:09Z</time>
      </trkpt>
      <trkpt lat="46.12058" lon="-1.20761">
        <ele>-2.75</ele>
        <time>2021-08-15T11:36:14Z</time>
      </trkpt>
      <trkpt lat="46.12051" lon="-1.20768">
        <ele>-2.75</ele>
        <time>2021-08-15T11:36:21Z</time>
      </trkpt>
      <trkpt lat="46.12042" lon="-1.20771">
        <ele>-2.75</ele>
        <time>2021-08-15T11:36:26Z</time>
      </trkpt>
      <trkpt lat="46.12025" lon="-1.20782">
        <ele>-2.75</ele>
        <time>2021-08-15T11:36:36Z</time>
      </trkpt>
      <trkpt lat="46.12016" lon="-1.20794">
        <ele>-3.71</ele>
        <time>2021-08-15T11:36:47Z</time>
      </trkpt>
      <trkpt lat="46.12019" lon="-1.20796">
        <ele>-3.71</ele>
        <time>2021-08-15T11:36:53Z</time>
      </trkpt>
      <trkpt lat="46.12027" lon="-1.20793">
        <ele>-3.71</ele>
        <time>2021-08-15T11:36:59Z</time>
      </trkpt>
      <trkpt lat="46.12033" lon="-1.20792">
        <ele>-3.71</ele>
        <time>2021-08-15T11:37:03Z</time>
      </trkpt>
      <trkpt lat="46.12039" lon="-1.20792">
        <ele>-3.71</ele>
        <time>2021-08-15T11:37:07Z</time>
      </trkpt>
      <trkpt lat="46.12046" lon="-1.20793">
        <ele>-1.3</ele>
        <time>2021-08-15T11:37:12Z</time>
      </trkpt>
      <trkpt lat="46.12049" lon="-1.20793">
        <ele>-2.75</ele>
        <time>2021-08-15T11:37:14Z</time>
      </trkpt>
      <trkpt lat="46.12071" lon="-1.20796">
        <ele>-1.79</ele>
        <time>2021-08-15T11:37:28Z</time>
      </trkpt>
      <trkpt lat="46.12097" lon="-1.20799">
        <ele>-1.79</ele>
        <time>2021-08-15T11:37:42Z</time>
      </trkpt>
      <trkpt lat="46.12101" lon="-1.20798">
        <ele>-1.79</ele>
        <time>2021-08-15T11:37:44Z</time>
      </trkpt>
      <trkpt lat="46.12111" lon="-1.208">
        <ele>-1.79</ele>
        <time>2021-08-15T11:37:50Z</time>
      </trkpt>
      <trkpt lat="46.12139" lon="-1.20803">
        <ele>-1.79</ele>
        <time>2021-08-15T11:38:06Z</time>
      </trkpt>
      <trkpt lat="46.12169" lon="-1.20808">
        <ele>-1.79</ele>
        <time>2021-08-15T11:38:21Z</time>
      </trkpt>
      <trkpt lat="46.12194" lon="-1.20811">
        <ele>-1.3</ele>
        <time>2021-08-15T11:38:33Z</time>
      </trkpt>
      <trkpt lat="46.12223" lon="-1.2082">
        <ele>-1.3</ele>
        <time>2021-08-15T11:38:47Z</time>
      </trkpt>
      <trkpt lat="46.12248" lon="-1.20829">
        <ele>-1.3</ele>
        <time>2021-08-15T11:38:59Z</time>
      </trkpt>
      <trkpt lat="46.12252" lon="-1.2083">
        <ele>-1.3</ele>
        <time>2021-08-15T11:39:01Z</time>
      </trkpt>
      <trkpt lat="46.12259" lon="-1.20833">
        <ele>-1.3</ele>
        <time>2021-08-15T11:39:05Z</time>
      </trkpt>
      <trkpt lat="46.12282" lon="-1.20837">
        <ele>-2.27</ele>
        <time>2021-08-15T11:39:16Z</time>
      </trkpt>
      <trkpt lat="46.12296" lon="-1.20835">
        <ele>-0.82</ele>
        <time>2021-08-15T11:39:24Z</time>
      </trkpt>
      <trkpt lat="46.12324" lon="-1.20836">
        <ele>-2.75</ele>
        <time>2021-08-15T11:39:40Z</time>
      </trkpt>
      <trkpt lat="46.12335" lon="-1.20833">
        <ele>-2.75</ele>
        <time>2021-08-15T11:39:46Z</time>
      </trkpt>
      <trkpt lat="46.12347" lon="-1.20831">
        <ele>-2.75</ele>
        <time>2021-08-15T11:39:52Z</time>
      </trkpt>
      <trkpt lat="46.12373" lon="-1.20835">
        <ele>-2.75</ele>
        <time>2021-08-15T11:40:07Z</time>
      </trkpt>
      <trkpt lat="46.12399" lon="-1.20842">
        <ele>-2.75</ele>
        <time>2021-08-15T11:40:22Z</time>
      </trkpt>
      <trkpt lat="46.12425" lon="-1.20854">
        <ele>-2.75</ele>
        <time>2021-08-15T11:40:35Z</time>
      </trkpt>
      <trkpt lat="46.12445" lon="-1.20867">
        <ele>-3.23</ele>
        <time>2021-08-15T11:40:47Z</time>
      </trkpt>
      <trkpt lat="46.12454" lon="-1.20872">
        <ele>-3.23</ele>
        <time>2021-08-15T11:40:52Z</time>
      </trkpt>
      <trkpt lat="46.12461" lon="-1.20877">
        <ele>-3.23</ele>
        <time>2021-08-15T11:40:57Z</time>
      </trkpt>
      <trkpt lat="46.12473" lon="-1.20883">
        <ele>-3.23</ele>
        <time>2021-08-15T11:41:04Z</time>
      </trkpt>
      <trkpt lat="46.1249" lon="-1.20891">
        <ele>-1.79</ele>
        <time>2021-08-15T11:41:13Z</time>
      </trkpt>
      <trkpt lat="46.12515" lon="-1.20903">
        <ele>-1.3</ele>
        <time>2021-08-15T11:41:26Z</time>
      </trkpt>
      <trkpt lat="46.12534" lon="-1.20913">
        <ele>-1.3</ele>
        <time>2021-08-15T11:41:37Z</time>
      </trkpt>
      <trkpt lat="46.12541" lon="-1.20916">
        <ele>-1.3</ele>
        <time>2021-08-15T11:41:41Z</time>
      </trkpt>
      <trkpt lat="46.12564" lon="-1.2093">
        <ele>-1.3</ele>
        <time>2021-08-15T11:41:54Z</time>
      </trkpt>
      <trkpt lat="46.12591" lon="-1.20948">
        <ele>-1.3</ele>
        <time>2021-08-15T11:42:09Z</time>
      </trkpt>
      <trkpt lat="46.12616" lon="-1.20963">
        <ele>-1.3</ele>
        <time>2021-08-15T11:42:23Z</time>
      </trkpt>
      <trkpt lat="46.12641" lon="-1.20979">
        <ele>-1.3</ele>
        <time>2021-08-15T11:42:38Z</time>
      </trkpt>
      <trkpt lat="46.12666" lon="-1.20993">
        <ele>-1.3</ele>
        <time>2021-08-15T11:42:52Z</time>
      </trkpt>
      <trkpt lat="46.12689" lon="-1.21008">
        <ele>-1.3</ele>
        <time>2021-08-15T11:43:05Z</time>
      </trkpt>
      <trkpt lat="46.12712" lon="-1.21027">
        <ele>-1.3</ele>
        <time>2021-08-15T11:43:18Z</time>
      </trkpt>
      <trkpt lat="46.12723" lon="-1.2104">
        <ele>-1.3</ele>
        <time>2021-08-15T11:43:25Z</time>
      </trkpt>
      <trkpt lat="46.12733" lon="-1.21049">
        <ele>-1.3</ele>
        <time>2021-08-15T11:43:31Z</time>
      </trkpt>
      <trkpt lat="46.12758" lon="-1.21073">
        <ele>-0.82</ele>
        <time>2021-08-15T11:43:46Z</time>
      </trkpt>
      <trkpt lat="46.1278" lon="-1.2109">
        <ele>-2.27</ele>
        <time>2021-08-15T11:43:58Z</time>
      </trkpt>
      <trkpt lat="46.12796" lon="-1.21097">
        <ele>-2.27</ele>
        <time>2021-08-15T11:44:06Z</time>
      </trkpt>
      <trkpt lat="46.12812" lon="-1.21105">
        <ele>-2.27</ele>
        <time>2021-08-15T11:44:15Z</time>
      </trkpt>
      <trkpt lat="46.12838" lon="-1.21121">
        <ele>-2.27</ele>
        <time>2021-08-15T11:44:29Z</time>
      </trkpt>
      <trkpt lat="46.12867" lon="-1.21138">
        <ele>-2.27</ele>
        <time>2021-08-15T11:44:45Z</time>
      </trkpt>
      <trkpt lat="46.12895" lon="-1.21155">
        <ele>-2.27</ele>
        <time>2021-08-15T11:45:00Z</time>
      </trkpt>
      <trkpt lat="46.12918" lon="-1.2117">
        <ele>-2.27</ele>
        <time>2021-08-15T11:45:12Z</time>
      </trkpt>
      <trkpt lat="46.12938" lon="-1.21181">
        <ele>-2.27</ele>
        <time>2021-08-15T11:45:23Z</time>
      </trkpt>
      <trkpt lat="46.1296" lon="-1.21195">
        <ele>-2.27</ele>
        <time>2021-08-15T11:45:35Z</time>
      </trkpt>
      <trkpt lat="46.12981" lon="-1.21212">
        <ele>-2.75</ele>
        <time>2021-08-15T11:45:49Z</time>
      </trkpt>
      <trkpt lat="46.1299" lon="-1.21215">
        <ele>-1.3</ele>
        <time>2021-08-15T11:45:54Z</time>
      </trkpt>
      <trkpt lat="46.12998" lon="-1.21219">
        <ele>-1.3</ele>
        <time>2021-08-15T11:45:59Z</time>
      </trkpt>
      <trkpt lat="46.13026" lon="-1.21236">
        <ele>-1.3</ele>
        <time>2021-08-15T11:46:14Z</time>
      </trkpt>
      <trkpt lat="46.13048" lon="-1.21251">
        <ele>-1.3</ele>
        <time>2021-08-15T11:46:26Z</time>
      </trkpt>
      <trkpt lat="46.13062" lon="-1.21263">
        <ele>-2.27</ele>
        <time>2021-08-15T11:46:35Z</time>
      </trkpt>
      <trkpt lat="46.13083" lon="-1.21277">
        <ele>-2.27</ele>
        <time>2021-08-15T11:46:48Z</time>
      </trkpt>
      <trkpt lat="46.13096" lon="-1.21289">
        <ele>-2.27</ele>
        <time>2021-08-15T11:46:56Z</time>
      </trkpt>
      <trkpt lat="46.13103" lon="-1.21295">
        <ele>-2.27</ele>
        <time>2021-08-15T11:47:00Z</time>
      </trkpt>
      <trkpt lat="46.13109" lon="-1.21301">
        <ele>-2.27</ele>
        <time>2021-08-15T11:47:04Z</time>
      </trkpt>
      <trkpt lat="46.13116" lon="-1.21309">
        <ele>-2.27</ele>
        <time>2021-08-15T11:47:09Z</time>
      </trkpt>
      <trkpt lat="46.13138" lon="-1.21327">
        <ele>-2.27</ele>
        <time>2021-08-15T11:47:24Z</time>
      </trkpt>
      <trkpt lat="46.13157" lon="-1.21342">
        <ele>-2.27</ele>
        <time>2021-08-15T11:47:35Z</time>
      </trkpt>
      <trkpt lat="46.13162" lon="-1.21346">
        <ele>-2.27</ele>
        <time>2021-08-15T11:47:39Z</time>
      </trkpt>
      <trkpt lat="46.13169" lon="-1.21349">
        <ele>-2.27</ele>
        <time>2021-08-15T11:47:43Z</time>
      </trkpt>
      <trkpt lat="46.13191" lon="-1.21355">
        <ele>-2.27</ele>
        <time>2021-08-15T11:47:56Z</time>
      </trkpt>
      <trkpt lat="46.13201" lon="-1.21357">
        <ele>-2.27</ele>
        <time>2021-08-15T11:48:03Z</time>
      </trkpt>
      <trkpt lat="46.13222" lon="-1.21369">
        <ele>-2.27</ele>
        <time>2021-08-15T11:48:16Z</time>
      </trkpt>
      <trkpt lat="46.13232" lon="-1.21376">
        <ele>-2.27</ele>
        <time>2021-08-15T11:48:23Z</time>
      </trkpt>
      <trkpt lat="46.13246" lon="-1.21383">
        <ele>-2.27</ele>
        <time>2021-08-15T11:48:31Z</time>
      </trkpt>
      <trkpt lat="46.13274" lon="-1.21398">
        <ele>-2.27</ele>
        <time>2021-08-15T11:48:46Z</time>
      </trkpt>
      <trkpt lat="46.13278" lon="-1.214">
        <ele>-1.3</ele>
        <time>2021-08-15T11:48:48Z</time>
      </trkpt>
      <trkpt lat="46.13303" lon="-1.21414">
        <ele>-0.82</ele>
        <time>2021-08-15T11:49:00Z</time>
      </trkpt>
      <trkpt lat="46.13313" lon="-1.2142">
        <ele>-1.79</ele>
        <time>2021-08-15T11:49:05Z</time>
      </trkpt>
      <trkpt lat="46.13339" lon="-1.21433">
        <ele>-1.79</ele>
        <time>2021-08-15T11:49:18Z</time>
      </trkpt>
      <trkpt lat="46.13369" lon="-1.21453">
        <ele>-1.79</ele>
        <time>2021-08-15T11:49:34Z</time>
      </trkpt>
      <trkpt lat="46.1339" lon="-1.21464">
        <ele>-1.79</ele>
        <time>2021-08-15T11:49:45Z</time>
      </trkpt>
      <trkpt lat="46.13417" lon="-1.21488">
        <ele>-2.27</ele>
        <time>2021-08-15T11:50:00Z</time>
      </trkpt>
      <trkpt lat="46.13443" lon="-1.21505">
        <ele>-2.27</ele>
        <time>2021-08-15T11:50:14Z</time>
      </trkpt>
      <trkpt lat="46.13469" lon="-1.21526">
        <ele>-2.27</ele>
        <time>2021-08-15T11:50:29Z</time>
      </trkpt>
      <trkpt lat="46.13493" lon="-1.21543">
        <ele>-2.27</ele>
        <time>2021-08-15T11:50:42Z</time>
      </trkpt>
      <trkpt lat="46.13518" lon="-1.2156">
        <ele>-1.3</ele>
        <time>2021-08-15T11:50:55Z</time>
      </trkpt>
      <trkpt lat="46.13546" lon="-1.21574">
        <ele>-1.3</ele>
        <time>2021-08-15T11:51:09Z</time>
      </trkpt>
      <trkpt lat="46.13568" lon="-1.21589">
        <ele>-1.3</ele>
        <time>2021-08-15T11:51:21Z</time>
      </trkpt>
      <trkpt lat="46.13596" lon="-1.2161">
        <ele>-1.3</ele>
        <time>2021-08-15T11:51:36Z</time>
      </trkpt>
      <trkpt lat="46.13621" lon="-1.2163">
        <ele>-1.3</ele>
        <time>2021-08-15T11:51:49Z</time>
      </trkpt>
      <trkpt lat="46.13644" lon="-1.21647">
        <ele>-1.3</ele>
        <time>2021-08-15T11:52:01Z</time>
      </trkpt>
      <trkpt lat="46.13666" lon="-1.21663">
        <ele>-1.3</ele>
        <time>2021-08-15T11:52:13Z</time>
      </trkpt>
      <trkpt lat="46.13694" lon="-1.21686">
        <ele>-1.3</ele>
        <time>2021-08-15T11:52:28Z</time>
      </trkpt>
      <trkpt lat="46.1372" lon="-1.21709">
        <ele>-1.3</ele>
        <time>2021-08-15T11:52:42Z</time>
      </trkpt>
      <trkpt lat="46.1374" lon="-1.21726">
        <ele>-1.3</ele>
        <time>2021-08-15T11:52:53Z</time>
      </trkpt>
      <trkpt lat="46.13766" lon="-1.21745">
        <ele>-1.3</ele>
        <time>2021-08-15T11:53:08Z</time>
      </trkpt>
      <trkpt lat="46.13788" lon="-1.21758">
        <ele>-1.3</ele>
        <time>2021-08-15T11:53:20Z</time>
      </trkpt>
      <trkpt lat="46.13809" lon="-1.21767">
        <ele>-1.3</ele>
        <time>2021-08-15T11:53:32Z</time>
      </trkpt>
      <trkpt lat="46.13816" lon="-1.21775">
        <ele>-3.23</ele>
        <time>2021-08-15T11:53:43Z</time>
      </trkpt>
      <trkpt lat="46.13817" lon="-1.21775">
        <ele>-3.23</ele>
        <time>2021-08-15T11:53:44Z</time>
      </trkpt>
      <trkpt lat="46.13833" lon="-1.21776">
        <ele>-3.23</ele>
        <time>2021-08-15T11:53:56Z</time>
      </trkpt>
      <trkpt lat="46.13837" lon="-1.21777">
        <ele>-3.23</ele>
        <time>2021-08-15T11:53:58Z</time>
      </trkpt>
      <trkpt lat="46.13854" lon="-1.2178">
        <ele>-3.23</ele>
        <time>2021-08-15T11:54:10Z</time>
      </trkpt>
      <trkpt lat="46.13865" lon="-1.21785">
        <ele>-3.23</ele>
        <time>2021-08-15T11:54:19Z</time>
      </trkpt>
      <trkpt lat="46.1389" lon="-1.21785">
        <ele>-3.23</ele>
        <time>2021-08-15T11:54:34Z</time>
      </trkpt>
      <trkpt lat="46.13906" lon="-1.2179">
        <ele>-3.23</ele>
        <time>2021-08-15T11:54:47Z</time>
      </trkpt>
      <trkpt lat="46.13921" lon="-1.21795">
        <ele>-1.79</ele>
        <time>2021-08-15T11:54:57Z</time>
      </trkpt>
      <trkpt lat="46.13947" lon="-1.21806">
        <ele>-3.23</ele>
        <time>2021-08-15T11:55:11Z</time>
      </trkpt>
      <trkpt lat="46.13953" lon="-1.21814">
        <ele>-3.71</ele>
        <time>2021-08-15T11:55:23Z</time>
      </trkpt>
      <trkpt lat="46.13954" lon="-1.21815">
        <ele>-3.71</ele>
        <time>2021-08-15T11:55:25Z</time>
      </trkpt>
      <trkpt lat="46.13958" lon="-1.21813">
        <ele>-1.3</ele>
        <time>2021-08-15T11:55:28Z</time>
      </trkpt>
      <trkpt lat="46.13961" lon="-1.21811">
        <ele>-1.3</ele>
        <time>2021-08-15T11:55:30Z</time>
      </trkpt>
      <trkpt lat="46.13977" lon="-1.21808">
        <ele>-2.75</ele>
        <time>2021-08-15T11:55:39Z</time>
      </trkpt>
      <trkpt lat="46.13989" lon="-1.21815">
        <ele>-3.23</ele>
        <time>2021-08-15T11:55:51Z</time>
      </trkpt>
      <trkpt lat="46.13993" lon="-1.21816">
        <ele>-3.23</ele>
        <time>2021-08-15T11:55:58Z</time>
      </trkpt>
      <trkpt lat="46.14013" lon="-1.21806">
        <ele>-3.23</ele>
        <time>2021-08-15T11:56:11Z</time>
      </trkpt>
      <trkpt lat="46.14024" lon="-1.2181">
        <ele>-3.23</ele>
        <time>2021-08-15T11:56:25Z</time>
      </trkpt>
      <trkpt lat="46.14025" lon="-1.2181">
        <ele>-3.23</ele>
        <time>2021-08-15T11:56:26Z</time>
      </trkpt>
      <trkpt lat="46.14028" lon="-1.2181">
        <ele>-3.23</ele>
        <time>2021-08-15T11:56:29Z</time>
      </trkpt>
      <trkpt lat="46.14047" lon="-1.21787">
        <ele>-4.19</ele>
        <time>2021-08-15T11:56:43Z</time>
      </trkpt>
      <trkpt lat="46.14046" lon="-1.21781">
        <ele>-2.75</ele>
        <time>2021-08-15T11:56:46Z</time>
      </trkpt>
      <trkpt lat="46.14035" lon="-1.21772">
        <ele>-2.27</ele>
        <time>2021-08-15T11:56:54Z</time>
      </trkpt>
      <trkpt lat="46.14014" lon="-1.21783">
        <ele>-2.27</ele>
        <time>2021-08-15T11:57:07Z</time>
      </trkpt>
      <trkpt lat="46.14009" lon="-1.21786">
        <ele>-2.27</ele>
        <time>2021-08-15T11:57:12Z</time>
      </trkpt>
      <trkpt lat="46.1399" lon="-1.21795">
        <ele>-1.79</ele>
        <time>2021-08-15T11:57:24Z</time>
      </trkpt>
      <trkpt lat="46.13985" lon="-1.21799">
        <ele>-1.79</ele>
        <time>2021-08-15T11:57:28Z</time>
      </trkpt>
      <trkpt lat="46.13971" lon="-1.2181">
        <ele>-1.79</ele>
        <time>2021-08-15T11:57:45Z</time>
      </trkpt>
      <trkpt lat="46.13964" lon="-1.21811">
        <ele>-1.79</ele>
        <time>2021-08-15T11:57:49Z</time>
      </trkpt>
      <trkpt lat="46.13939" lon="-1.21829">
        <ele>-1.79</ele>
        <time>2021-08-15T11:58:04Z</time>
      </trkpt>
      <trkpt lat="46.13934" lon="-1.21834">
        <ele>-1.79</ele>
        <time>2021-08-15T11:58:08Z</time>
      </trkpt>
      <trkpt lat="46.1393" lon="-1.21838">
        <ele>-1.79</ele>
        <time>2021-08-15T11:58:12Z</time>
      </trkpt>
      <trkpt lat="46.1391" lon="-1.21853">
        <ele>-1.79</ele>
        <time>2021-08-15T11:58:27Z</time>
      </trkpt>
      <trkpt lat="46.13894" lon="-1.21863">
        <ele>-1.79</ele>
        <time>2021-08-15T11:58:40Z</time>
      </trkpt>
      <trkpt lat="46.13872" lon="-1.21878">
        <ele>-1.79</ele>
        <time>2021-08-15T11:58:55Z</time>
      </trkpt>
      <trkpt lat="46.13869" lon="-1.2188">
        <ele>-1.79</ele>
        <time>2021-08-15T11:58:57Z</time>
      </trkpt>
      <trkpt lat="46.13863" lon="-1.21884">
        <ele>-1.79</ele>
        <time>2021-08-15T11:59:01Z</time>
      </trkpt>
      <trkpt lat="46.13845" lon="-1.21894">
        <ele>-1.79</ele>
        <time>2021-08-15T11:59:13Z</time>
      </trkpt>
      <trkpt lat="46.13829" lon="-1.21906">
        <ele>-1.79</ele>
        <time>2021-08-15T11:59:27Z</time>
      </trkpt>
      <trkpt lat="46.13809" lon="-1.21922">
        <ele>-2.27</ele>
        <time>2021-08-15T11:59:42Z</time>
      </trkpt>
      <trkpt lat="46.13788" lon="-1.21936">
        <ele>-1.79</ele>
        <time>2021-08-15T11:59:57Z</time>
      </trkpt>
      <trkpt lat="46.13777" lon="-1.21944">
        <ele>-0.34</ele>
        <time>2021-08-15T12:00:04Z</time>
      </trkpt>
      <trkpt lat="46.13773" lon="-1.21949">
        <ele>-2.27</ele>
        <time>2021-08-15T12:00:07Z</time>
      </trkpt>
      <trkpt lat="46.13756" lon="-1.2196">
        <ele>-2.27</ele>
        <time>2021-08-15T12:00:19Z</time>
      </trkpt>
      <trkpt lat="46.13755" lon="-1.21961">
        <ele>-2.27</ele>
        <time>2021-08-15T12:00:20Z</time>
      </trkpt>
      <trkpt lat="46.13736" lon="-1.21976">
        <ele>-2.27</ele>
        <time>2021-08-15T12:00:36Z</time>
      </trkpt>
      <trkpt lat="46.13713" lon="-1.21989">
        <ele>-2.27</ele>
        <time>2021-08-15T12:00:49Z</time>
      </trkpt>
      <trkpt lat="46.13691" lon="-1.22004">
        <ele>-2.27</ele>
        <time>2021-08-15T12:01:01Z</time>
      </trkpt>
      <trkpt lat="46.13665" lon="-1.22025">
        <ele>-2.27</ele>
        <time>2021-08-15T12:01:16Z</time>
      </trkpt>
      <trkpt lat="46.13641" lon="-1.22038">
        <ele>-2.27</ele>
        <time>2021-08-15T12:01:31Z</time>
      </trkpt>
      <trkpt lat="46.13621" lon="-1.2205">
        <ele>-2.27</ele>
        <time>2021-08-15T12:01:44Z</time>
      </trkpt>
      <trkpt lat="46.13605" lon="-1.22057">
        <ele>-2.75</ele>
        <time>2021-08-15T12:01:58Z</time>
      </trkpt>
      <trkpt lat="46.13583" lon="-1.22065">
        <ele>-2.75</ele>
        <time>2021-08-15T12:02:09Z</time>
      </trkpt>
      <trkpt lat="46.13554" lon="-1.22085">
        <ele>-2.75</ele>
        <time>2021-08-15T12:02:25Z</time>
      </trkpt>
      <trkpt lat="46.13533" lon="-1.221">
        <ele>-2.75</ele>
        <time>2021-08-15T12:02:39Z</time>
      </trkpt>
      <trkpt lat="46.13511" lon="-1.2211">
        <ele>-2.75</ele>
        <time>2021-08-15T12:02:52Z</time>
      </trkpt>
      <trkpt lat="46.13486" lon="-1.22128">
        <ele>-2.75</ele>
        <time>2021-08-15T12:03:07Z</time>
      </trkpt>
      <trkpt lat="46.13461" lon="-1.22144">
        <ele>-2.75</ele>
        <time>2021-08-15T12:03:23Z</time>
      </trkpt>
      <trkpt lat="46.13441" lon="-1.22156">
        <ele>-2.75</ele>
        <time>2021-08-15T12:03:35Z</time>
      </trkpt>
      <trkpt lat="46.1342" lon="-1.22169">
        <ele>-2.75</ele>
        <time>2021-08-15T12:03:49Z</time>
      </trkpt>
      <trkpt lat="46.134" lon="-1.22183">
        <ele>-2.75</ele>
        <time>2021-08-15T12:04:04Z</time>
      </trkpt>
      <trkpt lat="46.13381" lon="-1.22197">
        <ele>-2.75</ele>
        <time>2021-08-15T12:04:19Z</time>
      </trkpt>
      <trkpt lat="46.13363" lon="-1.22207">
        <ele>-2.75</ele>
        <time>2021-08-15T12:04:31Z</time>
      </trkpt>
      <trkpt lat="46.13345" lon="-1.22219">
        <ele>-2.75</ele>
        <time>2021-08-15T12:04:45Z</time>
      </trkpt>
      <trkpt lat="46.1333" lon="-1.22226">
        <ele>-2.75</ele>
        <time>2021-08-15T12:04:57Z</time>
      </trkpt>
      <trkpt lat="46.13306" lon="-1.22243">
        <ele>-1.79</ele>
        <time>2021-08-15T12:05:12Z</time>
      </trkpt>
      <trkpt lat="46.13277" lon="-1.22264">
        <ele>-1.3</ele>
        <time>2021-08-15T12:05:29Z</time>
      </trkpt>
      <trkpt lat="46.1325" lon="-1.22285">
        <ele>-1.3</ele>
        <time>2021-08-15T12:05:44Z</time>
      </trkpt>
      <trkpt lat="46.13229" lon="-1.22304">
        <ele>-2.75</ele>
        <time>2021-08-15T12:05:57Z</time>
      </trkpt>
      <trkpt lat="46.13208" lon="-1.22319">
        <ele>-2.75</ele>
        <time>2021-08-15T12:06:10Z</time>
      </trkpt>
      <trkpt lat="46.13189" lon="-1.22333">
        <ele>-2.75</ele>
        <time>2021-08-15T12:06:23Z</time>
      </trkpt>
      <trkpt lat="46.13169" lon="-1.2235">
        <ele>-2.75</ele>
        <time>2021-08-15T12:06:36Z</time>
      </trkpt>
      <trkpt lat="46.13147" lon="-1.22362">
        <ele>-2.75</ele>
        <time>2021-08-15T12:06:51Z</time>
      </trkpt>
      <trkpt lat="46.1312" lon="-1.22385">
        <ele>-2.75</ele>
        <time>2021-08-15T12:07:07Z</time>
      </trkpt>
      <trkpt lat="46.13101" lon="-1.22402">
        <ele>-2.75</ele>
        <time>2021-08-15T12:07:19Z</time>
      </trkpt>
      <trkpt lat="46.13081" lon="-1.2242">
        <ele>-2.75</ele>
        <time>2021-08-15T12:07:33Z</time>
      </trkpt>
      <trkpt lat="46.13051" lon="-1.22441">
        <ele>-2.75</ele>
        <time>2021-08-15T12:07:50Z</time>
      </trkpt>
      <trkpt lat="46.13025" lon="-1.22463">
        <ele>-2.75</ele>
        <time>2021-08-15T12:08:07Z</time>
      </trkpt>
      <trkpt lat="46.13004" lon="-1.22479">
        <ele>-2.75</ele>
        <time>2021-08-15T12:08:19Z</time>
      </trkpt>
      <trkpt lat="46.1298" lon="-1.22497">
        <ele>-2.75</ele>
        <time>2021-08-15T12:08:32Z</time>
      </trkpt>
      <trkpt lat="46.12952" lon="-1.2252">
        <ele>-2.75</ele>
        <time>2021-08-15T12:08:46Z</time>
      </trkpt>
      <trkpt lat="46.12926" lon="-1.22542">
        <ele>-2.75</ele>
        <time>2021-08-15T12:09:01Z</time>
      </trkpt>
      <trkpt lat="46.129" lon="-1.22556">
        <ele>-3.23</ele>
        <time>2021-08-15T12:09:14Z</time>
      </trkpt>
      <trkpt lat="46.12871" lon="-1.22576">
        <ele>-3.23</ele>
        <time>2021-08-15T12:09:29Z</time>
      </trkpt>
      <trkpt lat="46.12845" lon="-1.22593">
        <ele>-3.23</ele>
        <time>2021-08-15T12:09:42Z</time>
      </trkpt>
      <trkpt lat="46.12819" lon="-1.22613">
        <ele>-3.23</ele>
        <time>2021-08-15T12:09:57Z</time>
      </trkpt>
      <trkpt lat="46.12811" lon="-1.2262">
        <ele>-1.79</ele>
        <time>2021-08-15T12:10:01Z</time>
      </trkpt>
      <trkpt lat="46.12789" lon="-1.22637">
        <ele>-1.79</ele>
        <time>2021-08-15T12:10:13Z</time>
      </trkpt>
      <trkpt lat="46.12759" lon="-1.22662">
        <ele>-1.79</ele>
        <time>2021-08-15T12:10:29Z</time>
      </trkpt>
      <trkpt lat="46.12732" lon="-1.22687">
        <ele>-1.79</ele>
        <time>2021-08-15T12:10:44Z</time>
      </trkpt>
      <trkpt lat="46.12704" lon="-1.22716">
        <ele>-1.79</ele>
        <time>2021-08-15T12:11:00Z</time>
      </trkpt>
      <trkpt lat="46.12679" lon="-1.22741">
        <ele>-1.79</ele>
        <time>2021-08-15T12:11:14Z</time>
      </trkpt>
      <trkpt lat="46.12656" lon="-1.22762">
        <ele>-1.79</ele>
        <time>2021-08-15T12:11:27Z</time>
      </trkpt>
      <trkpt lat="46.12629" lon="-1.22789">
        <ele>-1.79</ele>
        <time>2021-08-15T12:11:42Z</time>
      </trkpt>
      <trkpt lat="46.12604" lon="-1.22811">
        <ele>-1.79</ele>
        <time>2021-08-15T12:11:56Z</time>
      </trkpt>
      <trkpt lat="46.12581" lon="-1.22837">
        <ele>-1.79</ele>
        <time>2021-08-15T12:12:09Z</time>
      </trkpt>
      <trkpt lat="46.12555" lon="-1.22864">
        <ele>-1.79</ele>
        <time>2021-08-15T12:12:23Z</time>
      </trkpt>
      <trkpt lat="46.12529" lon="-1.2289">
        <ele>-3.23</ele>
        <time>2021-08-15T12:12:38Z</time>
      </trkpt>
      <trkpt lat="46.12504" lon="-1.22914">
        <ele>-3.23</ele>
        <time>2021-08-15T12:12:52Z</time>
      </trkpt>
      <trkpt lat="46.12479" lon="-1.22939">
        <ele>-3.23</ele>
        <time>2021-08-15T12:13:06Z</time>
      </trkpt>
      <trkpt lat="46.1246" lon="-1.2296">
        <ele>-3.23</ele>
        <time>2021-08-15T12:13:18Z</time>
      </trkpt>
      <trkpt lat="46.12441" lon="-1.22975">
        <ele>-3.23</ele>
        <time>2021-08-15T12:13:30Z</time>
      </trkpt>
      <trkpt lat="46.12419" lon="-1.22992">
        <ele>-3.23</ele>
        <time>2021-08-15T12:13:43Z</time>
      </trkpt>
      <trkpt lat="46.12393" lon="-1.23015">
        <ele>-3.23</ele>
        <time>2021-08-15T12:13:58Z</time>
      </trkpt>
      <trkpt lat="46.12372" lon="-1.23039">
        <ele>-3.23</ele>
        <time>2021-08-15T12:14:12Z</time>
      </trkpt>
      <trkpt lat="46.12351" lon="-1.23062">
        <ele>-3.23</ele>
        <time>2021-08-15T12:14:26Z</time>
      </trkpt>
      <trkpt lat="46.12333" lon="-1.23075">
        <ele>-3.71</ele>
        <time>2021-08-15T12:14:38Z</time>
      </trkpt>
      <trkpt lat="46.12311" lon="-1.23098">
        <ele>-3.71</ele>
        <time>2021-08-15T12:14:52Z</time>
      </trkpt>
      <trkpt lat="46.12291" lon="-1.2312">
        <ele>-3.71</ele>
        <time>2021-08-15T12:15:05Z</time>
      </trkpt>
      <trkpt lat="46.12268" lon="-1.23152">
        <ele>-3.71</ele>
        <time>2021-08-15T12:15:20Z</time>
      </trkpt>
      <trkpt lat="46.12244" lon="-1.23188">
        <ele>-2.27</ele>
        <time>2021-08-15T12:15:36Z</time>
      </trkpt>
      <trkpt lat="46.12223" lon="-1.23216">
        <ele>-2.27</ele>
        <time>2021-08-15T12:15:50Z</time>
      </trkpt>
      <trkpt lat="46.12205" lon="-1.23237">
        <ele>-2.27</ele>
        <time>2021-08-15T12:16:02Z</time>
      </trkpt>
      <trkpt lat="46.12187" lon="-1.23254">
        <ele>-2.27</ele>
        <time>2021-08-15T12:16:13Z</time>
      </trkpt>
      <trkpt lat="46.12167" lon="-1.23278">
        <ele>-2.27</ele>
        <time>2021-08-15T12:16:25Z</time>
      </trkpt>
      <trkpt lat="46.1215" lon="-1.23294">
        <ele>-2.27</ele>
        <time>2021-08-15T12:16:35Z</time>
      </trkpt>
      <trkpt lat="46.1213" lon="-1.23317">
        <ele>-2.27</ele>
        <time>2021-08-15T12:16:48Z</time>
      </trkpt>
      <trkpt lat="46.12111" lon="-1.23335">
        <ele>-2.27</ele>
        <time>2021-08-15T12:17:00Z</time>
      </trkpt>
      <trkpt lat="46.12087" lon="-1.23359">
        <ele>-2.27</ele>
        <time>2021-08-15T12:17:15Z</time>
      </trkpt>
      <trkpt lat="46.12067" lon="-1.23383">
        <ele>-2.27</ele>
        <time>2021-08-15T12:17:28Z</time>
      </trkpt>
      <trkpt lat="46.12047" lon="-1.23408">
        <ele>-2.27</ele>
        <time>2021-08-15T12:17:41Z</time>
      </trkpt>
      <trkpt lat="46.12036" lon="-1.2342">
        <ele>-2.27</ele>
        <time>2021-08-15T12:17:48Z</time>
      </trkpt>
      <trkpt lat="46.12016" lon="-1.23447">
        <ele>-2.27</ele>
        <time>2021-08-15T12:18:01Z</time>
      </trkpt>
      <trkpt lat="46.11997" lon="-1.23468">
        <ele>-2.27</ele>
        <time>2021-08-15T12:18:13Z</time>
      </trkpt>
      <trkpt lat="46.11978" lon="-1.23489">
        <ele>-2.27</ele>
        <time>2021-08-15T12:18:26Z</time>
      </trkpt>
      <trkpt lat="46.11961" lon="-1.23508">
        <ele>-3.71</ele>
        <time>2021-08-15T12:18:36Z</time>
      </trkpt>
      <trkpt lat="46.11941" lon="-1.23536">
        <ele>-3.71</ele>
        <time>2021-08-15T12:18:49Z</time>
      </trkpt>
      <trkpt lat="46.11919" lon="-1.23563">
        <ele>-3.71</ele>
        <time>2021-08-15T12:19:01Z</time>
      </trkpt>
      <trkpt lat="46.11893" lon="-1.236">
        <ele>-3.71</ele>
        <time>2021-08-15T12:19:16Z</time>
      </trkpt>
      <trkpt lat="46.11872" lon="-1.23631">
        <ele>-3.71</ele>
        <time>2021-08-15T12:19:29Z</time>
      </trkpt>
      <trkpt lat="46.11854" lon="-1.23659">
        <ele>-3.71</ele>
        <time>2021-08-15T12:19:42Z</time>
      </trkpt>
      <trkpt lat="46.11843" lon="-1.23676">
        <ele>-3.71</ele>
        <time>2021-08-15T12:19:51Z</time>
      </trkpt>
      <trkpt lat="46.1183" lon="-1.23686">
        <ele>-3.71</ele>
        <time>2021-08-15T12:19:59Z</time>
      </trkpt>
      <trkpt lat="46.11806" lon="-1.2372">
        <ele>-3.71</ele>
        <time>2021-08-15T12:20:14Z</time>
      </trkpt>
      <trkpt lat="46.11802" lon="-1.23727">
        <ele>-3.71</ele>
        <time>2021-08-15T12:20:17Z</time>
      </trkpt>
      <trkpt lat="46.11781" lon="-1.23753">
        <ele>-3.71</ele>
        <time>2021-08-15T12:20:30Z</time>
      </trkpt>
      <trkpt lat="46.11762" lon="-1.23779">
        <ele>-3.71</ele>
        <time>2021-08-15T12:20:43Z</time>
      </trkpt>
      <trkpt lat="46.11738" lon="-1.2381">
        <ele>-3.71</ele>
        <time>2021-08-15T12:20:57Z</time>
      </trkpt>
      <trkpt lat="46.11715" lon="-1.2384">
        <ele>-3.71</ele>
        <time>2021-08-15T12:21:11Z</time>
      </trkpt>
      <trkpt lat="46.11696" lon="-1.23871">
        <ele>-3.71</ele>
        <time>2021-08-15T12:21:24Z</time>
      </trkpt>
      <trkpt lat="46.11678" lon="-1.239">
        <ele>-3.71</ele>
        <time>2021-08-15T12:21:37Z</time>
      </trkpt>
      <trkpt lat="46.11654" lon="-1.23941">
        <ele>-3.71</ele>
        <time>2021-08-15T12:21:54Z</time>
      </trkpt>
      <trkpt lat="46.11636" lon="-1.23974">
        <ele>-3.71</ele>
        <time>2021-08-15T12:22:07Z</time>
      </trkpt>
      <trkpt lat="46.11621" lon="-1.24004">
        <ele>-3.71</ele>
        <time>2021-08-15T12:22:20Z</time>
      </trkpt>
      <trkpt lat="46.11604" lon="-1.24029">
        <ele>-3.71</ele>
        <time>2021-08-15T12:22:32Z</time>
      </trkpt>
      <trkpt lat="46.11589" lon="-1.24054">
        <ele>-3.71</ele>
        <time>2021-08-15T12:22:45Z</time>
      </trkpt>
      <trkpt lat="46.11575" lon="-1.24066">
        <ele>-3.71</ele>
        <time>2021-08-15T12:22:57Z</time>
      </trkpt>
      <trkpt lat="46.11553" lon="-1.24087">
        <ele>-3.71</ele>
        <time>2021-08-15T12:23:09Z</time>
      </trkpt>
      <trkpt lat="46.11533" lon="-1.24109">
        <ele>-3.71</ele>
        <time>2021-08-15T12:23:21Z</time>
      </trkpt>
      <trkpt lat="46.11512" lon="-1.24136">
        <ele>-3.71</ele>
        <time>2021-08-15T12:23:35Z</time>
      </trkpt>
      <trkpt lat="46.11494" lon="-1.24156">
        <ele>-3.71</ele>
        <time>2021-08-15T12:23:47Z</time>
      </trkpt>
      <trkpt lat="46.11474" lon="-1.24184">
        <ele>-3.71</ele>
        <time>2021-08-15T12:24:00Z</time>
      </trkpt>
      <trkpt lat="46.11456" lon="-1.24203">
        <ele>-3.71</ele>
        <time>2021-08-15T12:24:12Z</time>
      </trkpt>
      <trkpt lat="46.11435" lon="-1.24229">
        <ele>-3.71</ele>
        <time>2021-08-15T12:24:25Z</time>
      </trkpt>
      <trkpt lat="46.11416" lon="-1.24254">
        <ele>-3.71</ele>
        <time>2021-08-15T12:24:37Z</time>
      </trkpt>
      <trkpt lat="46.11401" lon="-1.2428">
        <ele>-3.71</ele>
        <time>2021-08-15T12:24:50Z</time>
      </trkpt>
      <trkpt lat="46.11382" lon="-1.24313">
        <ele>-3.71</ele>
        <time>2021-08-15T12:25:06Z</time>
      </trkpt>
      <trkpt lat="46.11364" lon="-1.24341">
        <ele>-3.71</ele>
        <time>2021-08-15T12:25:20Z</time>
      </trkpt>
      <trkpt lat="46.11363" lon="-1.24343">
        <ele>-3.71</ele>
        <time>2021-08-15T12:25:21Z</time>
      </trkpt>
      <trkpt lat="46.11347" lon="-1.24365">
        <ele>-3.71</ele>
        <time>2021-08-15T12:25:35Z</time>
      </trkpt>
      <trkpt lat="46.11329" lon="-1.24394">
        <ele>-3.71</ele>
        <time>2021-08-15T12:25:49Z</time>
      </trkpt>
      <trkpt lat="46.11311" lon="-1.24421">
        <ele>-3.71</ele>
        <time>2021-08-15T12:26:01Z</time>
      </trkpt>
      <trkpt lat="46.11291" lon="-1.24456">
        <ele>-3.71</ele>
        <time>2021-08-15T12:26:16Z</time>
      </trkpt>
      <trkpt lat="46.11276" lon="-1.24483">
        <ele>-3.71</ele>
        <time>2021-08-15T12:26:29Z</time>
      </trkpt>
      <trkpt lat="46.11266" lon="-1.24501">
        <ele>-3.71</ele>
        <time>2021-08-15T12:26:38Z</time>
      </trkpt>
      <trkpt lat="46.11245" lon="-1.24532">
        <ele>-3.71</ele>
        <time>2021-08-15T12:26:52Z</time>
      </trkpt>
      <trkpt lat="46.11233" lon="-1.24563">
        <ele>-3.71</ele>
        <time>2021-08-15T12:27:05Z</time>
      </trkpt>
      <trkpt lat="46.11213" lon="-1.24593">
        <ele>-3.71</ele>
        <time>2021-08-15T12:27:18Z</time>
      </trkpt>
      <trkpt lat="46.11192" lon="-1.24627">
        <ele>-3.71</ele>
        <time>2021-08-15T12:27:32Z</time>
      </trkpt>
      <trkpt lat="46.11176" lon="-1.2465">
        <ele>-3.71</ele>
        <time>2021-08-15T12:27:43Z</time>
      </trkpt>
      <trkpt lat="46.11156" lon="-1.24676">
        <ele>-3.71</ele>
        <time>2021-08-15T12:27:56Z</time>
      </trkpt>
      <trkpt lat="46.11137" lon="-1.24701">
        <ele>-3.71</ele>
        <time>2021-08-15T12:28:08Z</time>
      </trkpt>
      <trkpt lat="46.1112" lon="-1.24726">
        <ele>-3.71</ele>
        <time>2021-08-15T12:28:20Z</time>
      </trkpt>
      <trkpt lat="46.11101" lon="-1.24754">
        <ele>-3.71</ele>
        <time>2021-08-15T12:28:35Z</time>
      </trkpt>
      <trkpt lat="46.11085" lon="-1.24771">
        <ele>-3.71</ele>
        <time>2021-08-15T12:28:47Z</time>
      </trkpt>
      <trkpt lat="46.11066" lon="-1.24792">
        <ele>-3.71</ele>
        <time>2021-08-15T12:28:58Z</time>
      </trkpt>
      <trkpt lat="46.11062" lon="-1.24801">
        <ele>-3.71</ele>
        <time>2021-08-15T12:29:10Z</time>
      </trkpt>
      <trkpt lat="46.11063" lon="-1.24801">
        <ele>-3.71</ele>
        <time>2021-08-15T12:29:14Z</time>
      </trkpt>
      <trkpt lat="46.11071" lon="-1.24795">
        <ele>-3.71</ele>
        <time>2021-08-15T12:29:22Z</time>
      </trkpt>
      <trkpt lat="46.1108" lon="-1.24789">
        <ele>-3.23</ele>
        <time>2021-08-15T12:29:29Z</time>
      </trkpt>
      <trkpt lat="46.11088" lon="-1.24785">
        <ele>-2.75</ele>
        <time>2021-08-15T12:29:34Z</time>
      </trkpt>
      <trkpt lat="46.11108" lon="-1.24775">
        <ele>-2.75</ele>
        <time>2021-08-15T12:29:47Z</time>
      </trkpt>
      <trkpt lat="46.11131" lon="-1.24774">
        <ele>-2.27</ele>
        <time>2021-08-15T12:30:00Z</time>
      </trkpt>
      <trkpt lat="46.11149" lon="-1.24775">
        <ele>-3.23</ele>
        <time>2021-08-15T12:30:09Z</time>
      </trkpt>
      <trkpt lat="46.11176" lon="-1.24779">
        <ele>-3.23</ele>
        <time>2021-08-15T12:30:21Z</time>
      </trkpt>
      <trkpt lat="46.11201" lon="-1.24782">
        <ele>-3.23</ele>
        <time>2021-08-15T12:30:33Z</time>
      </trkpt>
      <trkpt lat="46.11227" lon="-1.24782">
        <ele>-3.23</ele>
        <time>2021-08-15T12:30:45Z</time>
      </trkpt>
      <trkpt lat="46.11241" lon="-1.24783">
        <ele>-2.75</ele>
        <time>2021-08-15T12:30:51Z</time>
      </trkpt>
      <trkpt lat="46.11268" lon="-1.2479">
        <ele>-2.75</ele>
        <time>2021-08-15T12:31:04Z</time>
      </trkpt>
      <trkpt lat="46.11292" lon="-1.24799">
        <ele>-2.75</ele>
        <time>2021-08-15T12:31:16Z</time>
      </trkpt>
      <trkpt lat="46.1132" lon="-1.24802">
        <ele>-1.79</ele>
        <time>2021-08-15T12:31:30Z</time>
      </trkpt>
      <trkpt lat="46.11346" lon="-1.24801">
        <ele>-2.27</ele>
        <time>2021-08-15T12:31:43Z</time>
      </trkpt>
      <trkpt lat="46.11365" lon="-1.24801">
        <ele>-2.27</ele>
        <time>2021-08-15T12:31:54Z</time>
      </trkpt>
      <trkpt lat="46.11375" lon="-1.24802">
        <ele>-2.27</ele>
        <time>2021-08-15T12:31:59Z</time>
      </trkpt>
      <trkpt lat="46.11383" lon="-1.24805">
        <ele>-3.71</ele>
        <time>2021-08-15T12:32:03Z</time>
      </trkpt>
      <trkpt lat="46.1139" lon="-1.24807">
        <ele>-3.71</ele>
        <time>2021-08-15T12:32:06Z</time>
      </trkpt>
      <trkpt lat="46.11407" lon="-1.24811">
        <ele>-2.27</ele>
        <time>2021-08-15T12:32:14Z</time>
      </trkpt>
      <trkpt lat="46.11431" lon="-1.24818">
        <ele>-3.71</ele>
        <time>2021-08-15T12:32:26Z</time>
      </trkpt>
      <trkpt lat="46.1146" lon="-1.2483">
        <ele>-2.75</ele>
        <time>2021-08-15T12:32:40Z</time>
      </trkpt>
      <trkpt lat="46.11484" lon="-1.24839">
        <ele>-2.75</ele>
        <time>2021-08-15T12:32:52Z</time>
      </trkpt>
      <trkpt lat="46.11512" lon="-1.2485">
        <ele>-2.75</ele>
        <time>2021-08-15T12:33:06Z</time>
      </trkpt>
      <trkpt lat="46.11522" lon="-1.24855">
        <ele>-2.75</ele>
        <time>2021-08-15T12:33:11Z</time>
      </trkpt>
      <trkpt lat="46.11534" lon="-1.24862">
        <ele>-4.67</ele>
        <time>2021-08-15T12:33:18Z</time>
      </trkpt>
      <trkpt lat="46.11556" lon="-1.24872">
        <ele>-4.67</ele>
        <time>2021-08-15T12:33:29Z</time>
      </trkpt>
      <trkpt lat="46.11582" lon="-1.24887">
        <ele>-4.67</ele>
        <time>2021-08-15T12:33:42Z</time>
      </trkpt>
      <trkpt lat="46.11607" lon="-1.24903">
        <ele>-4.67</ele>
        <time>2021-08-15T12:33:55Z</time>
      </trkpt>
      <trkpt lat="46.11627" lon="-1.24913">
        <ele>-4.67</ele>
        <time>2021-08-15T12:34:06Z</time>
      </trkpt>
      <trkpt lat="46.11649" lon="-1.24923">
        <ele>-4.67</ele>
        <time>2021-08-15T12:34:17Z</time>
      </trkpt>
      <trkpt lat="46.1167" lon="-1.24931">
        <ele>-4.19</ele>
        <time>2021-08-15T12:34:28Z</time>
      </trkpt>
      <trkpt lat="46.11696" lon="-1.24943">
        <ele>-4.67</ele>
        <time>2021-08-15T12:34:41Z</time>
      </trkpt>
      <trkpt lat="46.11717" lon="-1.2495">
        <ele>-4.67</ele>
        <time>2021-08-15T12:34:52Z</time>
      </trkpt>
      <trkpt lat="46.11746" lon="-1.24967">
        <ele>-4.67</ele>
        <time>2021-08-15T12:35:08Z</time>
      </trkpt>
      <trkpt lat="46.11765" lon="-1.24979">
        <ele>-4.67</ele>
        <time>2021-08-15T12:35:19Z</time>
      </trkpt>
      <trkpt lat="46.11777" lon="-1.24986">
        <ele>-4.67</ele>
        <time>2021-08-15T12:35:27Z</time>
      </trkpt>
      <trkpt lat="46.11788" lon="-1.24995">
        <ele>-4.67</ele>
        <time>2021-08-15T12:35:35Z</time>
      </trkpt>
      <trkpt lat="46.11814" lon="-1.25011">
        <ele>-4.67</ele>
        <time>2021-08-15T12:35:52Z</time>
      </trkpt>
      <trkpt lat="46.11837" lon="-1.25023">
        <ele>-3.23</ele>
        <time>2021-08-15T12:36:05Z</time>
      </trkpt>
      <trkpt lat="46.11845" lon="-1.25029">
        <ele>-3.23</ele>
        <time>2021-08-15T12:36:10Z</time>
      </trkpt>
      <trkpt lat="46.11862" lon="-1.25038">
        <ele>-3.71</ele>
        <time>2021-08-15T12:36:21Z</time>
      </trkpt>
      <trkpt lat="46.11884" lon="-1.25053">
        <ele>-3.71</ele>
        <time>2021-08-15T12:36:34Z</time>
      </trkpt>
      <trkpt lat="46.11895" lon="-1.25061">
        <ele>-3.71</ele>
        <time>2021-08-15T12:36:41Z</time>
      </trkpt>
      <trkpt lat="46.11912" lon="-1.25073">
        <ele>-2.75</ele>
        <time>2021-08-15T12:36:52Z</time>
      </trkpt>
      <trkpt lat="46.1193" lon="-1.25087">
        <ele>-4.19</ele>
        <time>2021-08-15T12:37:07Z</time>
      </trkpt>
      <trkpt lat="46.11952" lon="-1.25098">
        <ele>-4.19</ele>
        <time>2021-08-15T12:37:20Z</time>
      </trkpt>
      <trkpt lat="46.11964" lon="-1.25104">
        <ele>-4.19</ele>
        <time>2021-08-15T12:37:27Z</time>
      </trkpt>
      <trkpt lat="46.11988" lon="-1.25115">
        <ele>-4.19</ele>
        <time>2021-08-15T12:37:40Z</time>
      </trkpt>
      <trkpt lat="46.12009" lon="-1.25128">
        <ele>-4.19</ele>
        <time>2021-08-15T12:37:53Z</time>
      </trkpt>
      <trkpt lat="46.12031" lon="-1.25138">
        <ele>-4.19</ele>
        <time>2021-08-15T12:38:07Z</time>
      </trkpt>
      <trkpt lat="46.12057" lon="-1.25152">
        <ele>-4.19</ele>
        <time>2021-08-15T12:38:21Z</time>
      </trkpt>
      <trkpt lat="46.12064" lon="-1.25157">
        <ele>-2.75</ele>
        <time>2021-08-15T12:38:25Z</time>
      </trkpt>
      <trkpt lat="46.12071" lon="-1.25162">
        <ele>-2.75</ele>
        <time>2021-08-15T12:38:29Z</time>
      </trkpt>
      <trkpt lat="46.12078" lon="-1.25167">
        <ele>-3.71</ele>
        <time>2021-08-15T12:38:33Z</time>
      </trkpt>
      <trkpt lat="46.12101" lon="-1.25185">
        <ele>-3.71</ele>
        <time>2021-08-15T12:38:48Z</time>
      </trkpt>
      <trkpt lat="46.12126" lon="-1.25191">
        <ele>-4.19</ele>
        <time>2021-08-15T12:39:02Z</time>
      </trkpt>
      <trkpt lat="46.12135" lon="-1.25193">
        <ele>-4.67</ele>
        <time>2021-08-15T12:39:07Z</time>
      </trkpt>
      <trkpt lat="46.12142" lon="-1.25196">
        <ele>-2.75</ele>
        <time>2021-08-15T12:39:11Z</time>
      </trkpt>
      <trkpt lat="46.12165" lon="-1.25217">
        <ele>-3.23</ele>
        <time>2021-08-15T12:39:25Z</time>
      </trkpt>
      <trkpt lat="46.1218" lon="-1.25227">
        <ele>-4.19</ele>
        <time>2021-08-15T12:39:34Z</time>
      </trkpt>
      <trkpt lat="46.12196" lon="-1.25233">
        <ele>-2.75</ele>
        <time>2021-08-15T12:39:42Z</time>
      </trkpt>
      <trkpt lat="46.12203" lon="-1.25238">
        <ele>-3.71</ele>
        <time>2021-08-15T12:39:46Z</time>
      </trkpt>
      <trkpt lat="46.12212" lon="-1.25245">
        <ele>-2.75</ele>
        <time>2021-08-15T12:39:51Z</time>
      </trkpt>
      <trkpt lat="46.1222" lon="-1.25248">
        <ele>-2.75</ele>
        <time>2021-08-15T12:39:55Z</time>
      </trkpt>
      <trkpt lat="46.12225" lon="-1.25253">
        <ele>-3.71</ele>
        <time>2021-08-15T12:39:58Z</time>
      </trkpt>
      <trkpt lat="46.12236" lon="-1.25259">
        <ele>-3.71</ele>
        <time>2021-08-15T12:40:04Z</time>
      </trkpt>
      <trkpt lat="46.12243" lon="-1.25266">
        <ele>-4.19</ele>
        <time>2021-08-15T12:40:08Z</time>
      </trkpt>
      <trkpt lat="46.12251" lon="-1.25269">
        <ele>-2.75</ele>
        <time>2021-08-15T12:40:12Z</time>
      </trkpt>
      <trkpt lat="46.12254" lon="-1.2527">
        <ele>-2.75</ele>
        <time>2021-08-15T12:40:14Z</time>
      </trkpt>
      <trkpt lat="46.12278" lon="-1.25282">
        <ele>-2.75</ele>
        <time>2021-08-15T12:40:26Z</time>
      </trkpt>
      <trkpt lat="46.12303" lon="-1.25293">
        <ele>-2.75</ele>
        <time>2021-08-15T12:40:39Z</time>
      </trkpt>
      <trkpt lat="46.12304" lon="-1.25293">
        <ele>-2.75</ele>
        <time>2021-08-15T12:40:40Z</time>
      </trkpt>
      <trkpt lat="46.1233" lon="-1.25305">
        <ele>-2.75</ele>
        <time>2021-08-15T12:40:53Z</time>
      </trkpt>
      <trkpt lat="46.12341" lon="-1.25314">
        <ele>-2.75</ele>
        <time>2021-08-15T12:40:59Z</time>
      </trkpt>
      <trkpt lat="46.1235" lon="-1.25317">
        <ele>-2.75</ele>
        <time>2021-08-15T12:41:04Z</time>
      </trkpt>
      <trkpt lat="46.12373" lon="-1.25331">
        <ele>-2.75</ele>
        <time>2021-08-15T12:41:16Z</time>
      </trkpt>
      <trkpt lat="46.12401" lon="-1.25342">
        <ele>-2.75</ele>
        <time>2021-08-15T12:41:31Z</time>
      </trkpt>
      <trkpt lat="46.12425" lon="-1.25354">
        <ele>-3.71</ele>
        <time>2021-08-15T12:41:44Z</time>
      </trkpt>
      <trkpt lat="46.12431" lon="-1.25357">
        <ele>-2.75</ele>
        <time>2021-08-15T12:41:47Z</time>
      </trkpt>
      <trkpt lat="46.12452" lon="-1.25365">
        <ele>-2.75</ele>
        <time>2021-08-15T12:41:58Z</time>
      </trkpt>
      <trkpt lat="46.12465" lon="-1.25371">
        <ele>-4.19</ele>
        <time>2021-08-15T12:42:05Z</time>
      </trkpt>
      <trkpt lat="46.12487" lon="-1.25378">
        <ele>-2.75</ele>
        <time>2021-08-15T12:42:17Z</time>
      </trkpt>
      <trkpt lat="46.12507" lon="-1.25383">
        <ele>-2.27</ele>
        <time>2021-08-15T12:42:28Z</time>
      </trkpt>
      <trkpt lat="46.12526" lon="-1.25387">
        <ele>-3.71</ele>
        <time>2021-08-15T12:42:38Z</time>
      </trkpt>
      <trkpt lat="46.12547" lon="-1.25393">
        <ele>-3.23</ele>
        <time>2021-08-15T12:42:50Z</time>
      </trkpt>
      <trkpt lat="46.12566" lon="-1.25402">
        <ele>-4.19</ele>
        <time>2021-08-15T12:43:00Z</time>
      </trkpt>
      <trkpt lat="46.12588" lon="-1.25417">
        <ele>-4.19</ele>
        <time>2021-08-15T12:43:13Z</time>
      </trkpt>
      <trkpt lat="46.12611" lon="-1.2543">
        <ele>-4.19</ele>
        <time>2021-08-15T12:43:27Z</time>
      </trkpt>
      <trkpt lat="46.12636" lon="-1.25439">
        <ele>-4.19</ele>
        <time>2021-08-15T12:43:40Z</time>
      </trkpt>
      <trkpt lat="46.12641" lon="-1.25442">
        <ele>-4.19</ele>
        <time>2021-08-15T12:43:43Z</time>
      </trkpt>
      <trkpt lat="46.12644" lon="-1.25442">
        <ele>-3.23</ele>
        <time>2021-08-15T12:43:45Z</time>
      </trkpt>
      <trkpt lat="46.1267" lon="-1.25449">
        <ele>-3.23</ele>
        <time>2021-08-15T12:43:58Z</time>
      </trkpt>
      <trkpt lat="46.12696" lon="-1.25456">
        <ele>-3.23</ele>
        <time>2021-08-15T12:44:13Z</time>
      </trkpt>
      <trkpt lat="46.12716" lon="-1.2546">
        <ele>-3.23</ele>
        <time>2021-08-15T12:44:25Z</time>
      </trkpt>
      <trkpt lat="46.12737" lon="-1.25467">
        <ele>-2.75</ele>
        <time>2021-08-15T12:44:38Z</time>
      </trkpt>
      <trkpt lat="46.12761" lon="-1.25475">
        <ele>-4.19</ele>
        <time>2021-08-15T12:44:52Z</time>
      </trkpt>
      <trkpt lat="46.12763" lon="-1.25476">
        <ele>-4.19</ele>
        <time>2021-08-15T12:44:53Z</time>
      </trkpt>
      <trkpt lat="46.12787" lon="-1.2549">
        <ele>-4.19</ele>
        <time>2021-08-15T12:45:07Z</time>
      </trkpt>
      <trkpt lat="46.1281" lon="-1.25499">
        <ele>-4.19</ele>
        <time>2021-08-15T12:45:20Z</time>
      </trkpt>
      <trkpt lat="46.12832" lon="-1.25509">
        <ele>-2.75</ele>
        <time>2021-08-15T12:45:32Z</time>
      </trkpt>
      <trkpt lat="46.12834" lon="-1.25509">
        <ele>-2.75</ele>
        <time>2021-08-15T12:45:33Z</time>
      </trkpt>
      <trkpt lat="46.1284" lon="-1.25512">
        <ele>-2.75</ele>
        <time>2021-08-15T12:45:37Z</time>
      </trkpt>
      <trkpt lat="46.12847" lon="-1.25516">
        <ele>-2.75</ele>
        <time>2021-08-15T12:45:41Z</time>
      </trkpt>
      <trkpt lat="46.12874" lon="-1.25529">
        <ele>-2.75</ele>
        <time>2021-08-15T12:45:56Z</time>
      </trkpt>
      <trkpt lat="46.12902" lon="-1.25549">
        <ele>-2.75</ele>
        <time>2021-08-15T12:46:12Z</time>
      </trkpt>
      <trkpt lat="46.12921" lon="-1.25568">
        <ele>-3.71</ele>
        <time>2021-08-15T12:46:24Z</time>
      </trkpt>
      <trkpt lat="46.12944" lon="-1.2559">
        <ele>-3.71</ele>
        <time>2021-08-15T12:46:38Z</time>
      </trkpt>
      <trkpt lat="46.12945" lon="-1.2559">
        <ele>-3.71</ele>
        <time>2021-08-15T12:46:39Z</time>
      </trkpt>
      <trkpt lat="46.12951" lon="-1.2559">
        <ele>-2.27</ele>
        <time>2021-08-15T12:46:42Z</time>
      </trkpt>
      <trkpt lat="46.12954" lon="-1.25591">
        <ele>-2.27</ele>
        <time>2021-08-15T12:46:44Z</time>
      </trkpt>
      <trkpt lat="46.1296" lon="-1.25598">
        <ele>-3.71</ele>
        <time>2021-08-15T12:46:48Z</time>
      </trkpt>
      <trkpt lat="46.12966" lon="-1.25602">
        <ele>-3.71</ele>
        <time>2021-08-15T12:46:52Z</time>
      </trkpt>
      <trkpt lat="46.12987" lon="-1.25614">
        <ele>-3.71</ele>
        <time>2021-08-15T12:47:04Z</time>
      </trkpt>
      <trkpt lat="46.12999" lon="-1.25621">
        <ele>-2.27</ele>
        <time>2021-08-15T12:47:11Z</time>
      </trkpt>
      <trkpt lat="46.1302" lon="-1.25636">
        <ele>-2.27</ele>
        <time>2021-08-15T12:47:24Z</time>
      </trkpt>
      <trkpt lat="46.13023" lon="-1.2564">
        <ele>-3.23</ele>
        <time>2021-08-15T12:47:26Z</time>
      </trkpt>
      <trkpt lat="46.13045" lon="-1.25658">
        <ele>-1.79</ele>
        <time>2021-08-15T12:47:39Z</time>
      </trkpt>
      <trkpt lat="46.13072" lon="-1.25673">
        <ele>-3.23</ele>
        <time>2021-08-15T12:47:55Z</time>
      </trkpt>
      <trkpt lat="46.13094" lon="-1.25687">
        <ele>-3.23</ele>
        <time>2021-08-15T12:48:09Z</time>
      </trkpt>
      <trkpt lat="46.13118" lon="-1.25698">
        <ele>-3.23</ele>
        <time>2021-08-15T12:48:23Z</time>
      </trkpt>
      <trkpt lat="46.13134" lon="-1.25709">
        <ele>-3.71</ele>
        <time>2021-08-15T12:48:33Z</time>
      </trkpt>
      <trkpt lat="46.13158" lon="-1.25723">
        <ele>-3.71</ele>
        <time>2021-08-15T12:48:48Z</time>
      </trkpt>
      <trkpt lat="46.13182" lon="-1.25742">
        <ele>-3.71</ele>
        <time>2021-08-15T12:49:03Z</time>
      </trkpt>
      <trkpt lat="46.13209" lon="-1.2576">
        <ele>-3.71</ele>
        <time>2021-08-15T12:49:19Z</time>
      </trkpt>
      <trkpt lat="46.13236" lon="-1.25774">
        <ele>-3.71</ele>
        <time>2021-08-15T12:49:37Z</time>
      </trkpt>
      <trkpt lat="46.13246" lon="-1.2578">
        <ele>-3.71</ele>
        <time>2021-08-15T12:49:44Z</time>
      </trkpt>
      <trkpt lat="46.13254" lon="-1.25783">
        <ele>-3.71</ele>
        <time>2021-08-15T12:49:49Z</time>
      </trkpt>
      <trkpt lat="46.13264" lon="-1.2579">
        <ele>-4.19</ele>
        <time>2021-08-15T12:49:56Z</time>
      </trkpt>
      <trkpt lat="46.1327" lon="-1.25793">
        <ele>-4.19</ele>
        <time>2021-08-15T12:50:00Z</time>
      </trkpt>
      <trkpt lat="46.13292" lon="-1.25803">
        <ele>-4.19</ele>
        <time>2021-08-15T12:50:14Z</time>
      </trkpt>
      <trkpt lat="46.13293" lon="-1.25804">
        <ele>-4.19</ele>
        <time>2021-08-15T12:50:15Z</time>
      </trkpt>
      <trkpt lat="46.13304" lon="-1.25809">
        <ele>-4.19</ele>
        <time>2021-08-15T12:50:22Z</time>
      </trkpt>
      <trkpt lat="46.13313" lon="-1.25816">
        <ele>-4.19</ele>
        <time>2021-08-15T12:50:29Z</time>
      </trkpt>
      <trkpt lat="46.13321" lon="-1.25819">
        <ele>-2.75</ele>
        <time>2021-08-15T12:50:35Z</time>
      </trkpt>
      <trkpt lat="46.13323" lon="-1.25819">
        <ele>-2.75</ele>
        <time>2021-08-15T12:50:36Z</time>
      </trkpt>
      <trkpt lat="46.13343" lon="-1.2583">
        <ele>-3.71</ele>
        <time>2021-08-15T12:50:49Z</time>
      </trkpt>
      <trkpt lat="46.13363" lon="-1.25844">
        <ele>-2.27</ele>
        <time>2021-08-15T12:51:03Z</time>
      </trkpt>
      <trkpt lat="46.13368" lon="-1.25846">
        <ele>-3.71</ele>
        <time>2021-08-15T12:51:06Z</time>
      </trkpt>
      <trkpt lat="46.13387" lon="-1.2586">
        <ele>-3.71</ele>
        <time>2021-08-15T12:51:19Z</time>
      </trkpt>
      <trkpt lat="46.13396" lon="-1.25866">
        <ele>-3.23</ele>
        <time>2021-08-15T12:51:25Z</time>
      </trkpt>
      <trkpt lat="46.13418" lon="-1.25878">
        <ele>-3.23</ele>
        <time>2021-08-15T12:51:38Z</time>
      </trkpt>
      <trkpt lat="46.13441" lon="-1.25888">
        <ele>-3.23</ele>
        <time>2021-08-15T12:51:53Z</time>
      </trkpt>
      <trkpt lat="46.13465" lon="-1.25892">
        <ele>-3.23</ele>
        <time>2021-08-15T12:52:09Z</time>
      </trkpt>
      <trkpt lat="46.13491" lon="-1.25899">
        <ele>-3.23</ele>
        <time>2021-08-15T12:52:24Z</time>
      </trkpt>
      <trkpt lat="46.13516" lon="-1.25904">
        <ele>-2.75</ele>
        <time>2021-08-15T12:52:39Z</time>
      </trkpt>
      <trkpt lat="46.1354" lon="-1.25909">
        <ele>-2.75</ele>
        <time>2021-08-15T12:52:54Z</time>
      </trkpt>
      <trkpt lat="46.13562" lon="-1.25909">
        <ele>-2.75</ele>
        <time>2021-08-15T12:53:09Z</time>
      </trkpt>
      <trkpt lat="46.13566" lon="-1.2591">
        <ele>-4.19</ele>
        <time>2021-08-15T12:53:12Z</time>
      </trkpt>
      <trkpt lat="46.13581" lon="-1.25914">
        <ele>-4.19</ele>
        <time>2021-08-15T12:53:21Z</time>
      </trkpt>
      <trkpt lat="46.13611" lon="-1.25918">
        <ele>-4.19</ele>
        <time>2021-08-15T12:53:37Z</time>
      </trkpt>
      <trkpt lat="46.13633" lon="-1.25915">
        <ele>-2.75</ele>
        <time>2021-08-15T12:53:51Z</time>
      </trkpt>
      <trkpt lat="46.13654" lon="-1.25916">
        <ele>-2.27</ele>
        <time>2021-08-15T12:54:03Z</time>
      </trkpt>
      <trkpt lat="46.13681" lon="-1.25912">
        <ele>-2.27</ele>
        <time>2021-08-15T12:54:19Z</time>
      </trkpt>
      <trkpt lat="46.13703" lon="-1.25912">
        <ele>-3.71</ele>
        <time>2021-08-15T12:54:32Z</time>
      </trkpt>
      <trkpt lat="46.13727" lon="-1.25913">
        <ele>-3.71</ele>
        <time>2021-08-15T12:54:45Z</time>
      </trkpt>
      <trkpt lat="46.1375" lon="-1.25913">
        <ele>-3.71</ele>
        <time>2021-08-15T12:54:58Z</time>
      </trkpt>
      <trkpt lat="46.13754" lon="-1.25913">
        <ele>-2.27</ele>
        <time>2021-08-15T12:55:00Z</time>
      </trkpt>
      <trkpt lat="46.13779" lon="-1.2591">
        <ele>-4.19</ele>
        <time>2021-08-15T12:55:15Z</time>
      </trkpt>
      <trkpt lat="46.13813" lon="-1.25912">
        <ele>-2.75</ele>
        <time>2021-08-15T12:55:33Z</time>
      </trkpt>
      <trkpt lat="46.13821" lon="-1.25914">
        <ele>-4.19</ele>
        <time>2021-08-15T12:55:37Z</time>
      </trkpt>
      <trkpt lat="46.13852" lon="-1.2592">
        <ele>-4.19</ele>
        <time>2021-08-15T12:55:54Z</time>
      </trkpt>
      <trkpt lat="46.13875" lon="-1.25925">
        <ele>-2.75</ele>
        <time>2021-08-15T12:56:07Z</time>
      </trkpt>
      <trkpt lat="46.139" lon="-1.25933">
        <ele>-2.75</ele>
        <time>2021-08-15T12:56:21Z</time>
      </trkpt>
      <trkpt lat="46.13932" lon="-1.2594">
        <ele>-2.75</ele>
        <time>2021-08-15T12:56:38Z</time>
      </trkpt>
      <trkpt lat="46.13962" lon="-1.2595">
        <ele>-2.75</ele>
        <time>2021-08-15T12:56:54Z</time>
      </trkpt>
      <trkpt lat="46.13992" lon="-1.25959">
        <ele>-3.71</ele>
        <time>2021-08-15T12:57:10Z</time>
      </trkpt>
      <trkpt lat="46.14021" lon="-1.2597">
        <ele>-3.71</ele>
        <time>2021-08-15T12:57:26Z</time>
      </trkpt>
      <trkpt lat="46.1405" lon="-1.25978">
        <ele>-3.71</ele>
        <time>2021-08-15T12:57:41Z</time>
      </trkpt>
      <trkpt lat="46.14079" lon="-1.25988">
        <ele>-3.71</ele>
        <time>2021-08-15T12:57:57Z</time>
      </trkpt>
      <trkpt lat="46.14109" lon="-1.26004">
        <ele>-2.75</ele>
        <time>2021-08-15T12:58:13Z</time>
      </trkpt>
      <trkpt lat="46.1413" lon="-1.26015">
        <ele>-4.19</ele>
        <time>2021-08-15T12:58:25Z</time>
      </trkpt>
      <trkpt lat="46.14157" lon="-1.26028">
        <ele>-4.19</ele>
        <time>2021-08-15T12:58:41Z</time>
      </trkpt>
      <trkpt lat="46.14181" lon="-1.26036">
        <ele>-3.23</ele>
        <time>2021-08-15T12:58:54Z</time>
      </trkpt>
      <trkpt lat="46.14188" lon="-1.26038">
        <ele>-2.75</ele>
        <time>2021-08-15T12:58:58Z</time>
      </trkpt>
      <trkpt lat="46.14215" lon="-1.26041">
        <ele>-2.27</ele>
        <time>2021-08-15T12:59:11Z</time>
      </trkpt>
      <trkpt lat="46.14251" lon="-1.26043">
        <ele>-2.27</ele>
        <time>2021-08-15T12:59:29Z</time>
      </trkpt>
      <trkpt lat="46.14284" lon="-1.26039">
        <ele>-2.27</ele>
        <time>2021-08-15T12:59:45Z</time>
      </trkpt>
      <trkpt lat="46.14309" lon="-1.26034">
        <ele>-2.27</ele>
        <time>2021-08-15T12:59:58Z</time>
      </trkpt>
      <trkpt lat="46.14341" lon="-1.26029">
        <ele>-2.27</ele>
        <time>2021-08-15T13:00:13Z</time>
      </trkpt>
      <trkpt lat="46.14355" lon="-1.26023">
        <ele>-2.27</ele>
        <time>2021-08-15T13:00:20Z</time>
      </trkpt>
      <trkpt lat="46.14374" lon="-1.26021">
        <ele>-1.3</ele>
        <time>2021-08-15T13:00:29Z</time>
      </trkpt>
      <trkpt lat="46.1441" lon="-1.2602">
        <ele>-1.3</ele>
        <time>2021-08-15T13:00:45Z</time>
      </trkpt>
      <trkpt lat="46.14441" lon="-1.26017">
        <ele>-0.82</ele>
        <time>2021-08-15T13:00:59Z</time>
      </trkpt>
      <trkpt lat="46.14483" lon="-1.26018">
        <ele>-0.82</ele>
        <time>2021-08-15T13:01:17Z</time>
      </trkpt>
      <trkpt lat="46.14515" lon="-1.26023">
        <ele>-0.82</ele>
        <time>2021-08-15T13:01:31Z</time>
      </trkpt>
      <trkpt lat="46.14546" lon="-1.26025">
        <ele>-2.75</ele>
        <time>2021-08-15T13:01:44Z</time>
      </trkpt>
      <trkpt lat="46.14576" lon="-1.26013">
        <ele>-3.71</ele>
        <time>2021-08-15T13:01:59Z</time>
      </trkpt>
      <trkpt lat="46.14603" lon="-1.2598">
        <ele>-4.19</ele>
        <time>2021-08-15T13:02:15Z</time>
      </trkpt>
      <trkpt lat="46.14627" lon="-1.25944">
        <ele>-2.75</ele>
        <time>2021-08-15T13:02:31Z</time>
      </trkpt>
      <trkpt lat="46.14652" lon="-1.25909">
        <ele>-2.27</ele>
        <time>2021-08-15T13:02:47Z</time>
      </trkpt>
      <trkpt lat="46.14682" lon="-1.25864">
        <ele>-3.71</ele>
        <time>2021-08-15T13:03:06Z</time>
      </trkpt>
      <trkpt lat="46.14706" lon="-1.2582">
        <ele>-3.71</ele>
        <time>2021-08-15T13:03:23Z</time>
      </trkpt>
      <trkpt lat="46.14721" lon="-1.2578">
        <ele>-4.19</ele>
        <time>2021-08-15T13:03:39Z</time>
      </trkpt>
      <trkpt lat="46.14738" lon="-1.25748">
        <ele>-4.19</ele>
        <time>2021-08-15T13:03:53Z</time>
      </trkpt>
      <trkpt lat="46.14739" lon="-1.25743">
        <ele>-4.19</ele>
        <time>2021-08-15T13:03:55Z</time>
      </trkpt>
      <trkpt lat="46.14748" lon="-1.25723">
        <ele>-4.19</ele>
        <time>2021-08-15T13:04:04Z</time>
      </trkpt>
      <trkpt lat="46.14764" lon="-1.25686">
        <ele>-4.19</ele>
        <time>2021-08-15T13:04:21Z</time>
      </trkpt>
      <trkpt lat="46.14769" lon="-1.25681">
        <ele>-2.75</ele>
        <time>2021-08-15T13:04:24Z</time>
      </trkpt>
      <trkpt lat="46.14791" lon="-1.25648">
        <ele>-4.19</ele>
        <time>2021-08-15T13:04:39Z</time>
      </trkpt>
      <trkpt lat="46.148" lon="-1.2562">
        <ele>-3.23</ele>
        <time>2021-08-15T13:04:50Z</time>
      </trkpt>
      <trkpt lat="46.1482" lon="-1.25599">
        <ele>-2.75</ele>
        <time>2021-08-15T13:05:04Z</time>
      </trkpt>
      <trkpt lat="46.14845" lon="-1.25577">
        <ele>-2.75</ele>
        <time>2021-08-15T13:05:19Z</time>
      </trkpt>
      <trkpt lat="46.14862" lon="-1.25541">
        <ele>-4.67</ele>
        <time>2021-08-15T13:05:35Z</time>
      </trkpt>
      <trkpt lat="46.14881" lon="-1.25499">
        <ele>-4.67</ele>
        <time>2021-08-15T13:05:52Z</time>
      </trkpt>
      <trkpt lat="46.14902" lon="-1.25459">
        <ele>-3.23</ele>
        <time>2021-08-15T13:06:09Z</time>
      </trkpt>
      <trkpt lat="46.14917" lon="-1.25416">
        <ele>-3.23</ele>
        <time>2021-08-15T13:06:26Z</time>
      </trkpt>
      <trkpt lat="46.14938" lon="-1.25377">
        <ele>-2.75</ele>
        <time>2021-08-15T13:06:44Z</time>
      </trkpt>
      <trkpt lat="46.14954" lon="-1.25335">
        <ele>-2.75</ele>
        <time>2021-08-15T13:07:01Z</time>
      </trkpt>
      <trkpt lat="46.14973" lon="-1.25307">
        <ele>-1.3</ele>
        <time>2021-08-15T13:07:14Z</time>
      </trkpt>
      <trkpt lat="46.14988" lon="-1.2528">
        <ele>-3.23</ele>
        <time>2021-08-15T13:07:26Z</time>
      </trkpt>
      <trkpt lat="46.15008" lon="-1.25239">
        <ele>-3.23</ele>
        <time>2021-08-15T13:07:43Z</time>
      </trkpt>
      <trkpt lat="46.15025" lon="-1.25211">
        <ele>-3.71</ele>
        <time>2021-08-15T13:07:56Z</time>
      </trkpt>
      <trkpt lat="46.15044" lon="-1.2518">
        <ele>-3.71</ele>
        <time>2021-08-15T13:08:10Z</time>
      </trkpt>
      <trkpt lat="46.15064" lon="-1.25146">
        <ele>-3.71</ele>
        <time>2021-08-15T13:08:26Z</time>
      </trkpt>
      <trkpt lat="46.15079" lon="-1.25111">
        <ele>-3.71</ele>
        <time>2021-08-15T13:08:41Z</time>
      </trkpt>
      <trkpt lat="46.15088" lon="-1.25099">
        <ele>-2.27</ele>
        <time>2021-08-15T13:08:48Z</time>
      </trkpt>
      <trkpt lat="46.15108" lon="-1.25091">
        <ele>-2.27</ele>
        <time>2021-08-15T13:08:59Z</time>
      </trkpt>
      <trkpt lat="46.1513" lon="-1.25077">
        <ele>-2.27</ele>
        <time>2021-08-15T13:09:12Z</time>
      </trkpt>
      <trkpt lat="46.15153" lon="-1.25057">
        <ele>-3.23</ele>
        <time>2021-08-15T13:09:27Z</time>
      </trkpt>
      <trkpt lat="46.1517" lon="-1.25043">
        <ele>-3.23</ele>
        <time>2021-08-15T13:09:39Z</time>
      </trkpt>
      <trkpt lat="46.15194" lon="-1.25025">
        <ele>-1.79</ele>
        <time>2021-08-15T13:09:54Z</time>
      </trkpt>
      <trkpt lat="46.15208" lon="-1.25003">
        <ele>-3.23</ele>
        <time>2021-08-15T13:10:07Z</time>
      </trkpt>
      <trkpt lat="46.15219" lon="-1.24987">
        <ele>-1.79</ele>
        <time>2021-08-15T13:10:18Z</time>
      </trkpt>
      <trkpt lat="46.15244" lon="-1.24974">
        <ele>-1.3</ele>
        <time>2021-08-15T13:10:32Z</time>
      </trkpt>
      <trkpt lat="46.15265" lon="-1.24964">
        <ele>-1.3</ele>
        <time>2021-08-15T13:10:44Z</time>
      </trkpt>
      <trkpt lat="46.1528" lon="-1.24949">
        <ele>-1.3</ele>
        <time>2021-08-15T13:10:54Z</time>
      </trkpt>
      <trkpt lat="46.15303" lon="-1.2493">
        <ele>-0.82</ele>
        <time>2021-08-15T13:11:09Z</time>
      </trkpt>
      <trkpt lat="46.15319" lon="-1.24923">
        <ele>-2.75</ele>
        <time>2021-08-15T13:11:19Z</time>
      </trkpt>
      <trkpt lat="46.15336" lon="-1.24898">
        <ele>-3.23</ele>
        <time>2021-08-15T13:11:32Z</time>
      </trkpt>
      <trkpt lat="46.15338" lon="-1.24883">
        <ele>-2.27</ele>
        <time>2021-08-15T13:11:38Z</time>
      </trkpt>
      <trkpt lat="46.15345" lon="-1.24878">
        <ele>-0.34</ele>
        <time>2021-08-15T13:11:43Z</time>
      </trkpt>
      <trkpt lat="46.15368" lon="-1.24868">
        <ele>-2.27</ele>
        <time>2021-08-15T13:11:58Z</time>
      </trkpt>
      <trkpt lat="46.15385" lon="-1.24872">
        <ele>0.62</ele>
        <time>2021-08-15T13:12:14Z</time>
      </trkpt>
      <trkpt lat="46.15386" lon="-1.24872">
        <ele>0.62</ele>
        <time>2021-08-15T13:12:15Z</time>
      </trkpt>
      <trkpt lat="46.15407" lon="-1.24868">
        <ele>-1.79</ele>
        <time>2021-08-15T13:12:32Z</time>
      </trkpt>
      <trkpt lat="46.15405" lon="-1.24843">
        <ele>-1.79</ele>
        <time>2021-08-15T13:12:44Z</time>
      </trkpt>
      <trkpt lat="46.15386" lon="-1.24838">
        <ele>-1.79</ele>
        <time>2021-08-15T13:12:56Z</time>
      </trkpt>
      <trkpt lat="46.15369" lon="-1.24832">
        <ele>-0.34</ele>
        <time>2021-08-15T13:13:06Z</time>
      </trkpt>
      <trkpt lat="46.15358" lon="-1.2483">
        <ele>-0.82</ele>
        <time>2021-08-15T13:13:13Z</time>
      </trkpt>
      <trkpt lat="46.15333" lon="-1.24825">
        <ele>-2.27</ele>
        <time>2021-08-15T13:13:29Z</time>
      </trkpt>
      <trkpt lat="46.15308" lon="-1.24814">
        <ele>-2.27</ele>
        <time>2021-08-15T13:13:44Z</time>
      </trkpt>
      <trkpt lat="46.15285" lon="-1.24794">
        <ele>-1.3</ele>
        <time>2021-08-15T13:13:57Z</time>
      </trkpt>
      <trkpt lat="46.15254" lon="-1.24786">
        <ele>-1.79</ele>
        <time>2021-08-15T13:14:12Z</time>
      </trkpt>
      <trkpt lat="46.15223" lon="-1.24779">
        <ele>-1.79</ele>
        <time>2021-08-15T13:14:27Z</time>
      </trkpt>
      <trkpt lat="46.15211" lon="-1.24777">
        <ele>-3.23</ele>
        <time>2021-08-15T13:14:32Z</time>
      </trkpt>
      <trkpt lat="46.15206" lon="-1.24778">
        <ele>-3.23</ele>
        <time>2021-08-15T13:14:34Z</time>
      </trkpt>
      <trkpt lat="46.15199" lon="-1.24777">
        <ele>-3.23</ele>
        <time>2021-08-15T13:14:38Z</time>
      </trkpt>
      <trkpt lat="46.15176" lon="-1.24774">
        <ele>-1.79</ele>
        <time>2021-08-15T13:14:53Z</time>
      </trkpt>
      <trkpt lat="46.15153" lon="-1.24768">
        <ele>-2.75</ele>
        <time>2021-08-15T13:15:05Z</time>
      </trkpt>
      <trkpt lat="46.15123" lon="-1.24755">
        <ele>-2.75</ele>
        <time>2021-08-15T13:15:20Z</time>
      </trkpt>
      <trkpt lat="46.15111" lon="-1.24753">
        <ele>-1.79</ele>
        <time>2021-08-15T13:15:25Z</time>
      </trkpt>
      <trkpt lat="46.15078" lon="-1.24748">
        <ele>-2.75</ele>
        <time>2021-08-15T13:15:38Z</time>
      </trkpt>
      <trkpt lat="46.15043" lon="-1.24736">
        <ele>-1.79</ele>
        <time>2021-08-15T13:15:52Z</time>
      </trkpt>
      <trkpt lat="46.15007" lon="-1.24722">
        <ele>-0.82</ele>
        <time>2021-08-15T13:16:06Z</time>
      </trkpt>
      <trkpt lat="46.15001" lon="-1.24721">
        <ele>-2.75</ele>
        <time>2021-08-15T13:16:08Z</time>
      </trkpt>
      <trkpt lat="46.14966" lon="-1.24702">
        <ele>-2.75</ele>
        <time>2021-08-15T13:16:21Z</time>
      </trkpt>
      <trkpt lat="46.14957" lon="-1.247">
        <ele>-1.79</ele>
        <time>2021-08-15T13:16:24Z</time>
      </trkpt>
      <trkpt lat="46.14925" lon="-1.24687">
        <ele>-0.82</ele>
        <time>2021-08-15T13:16:35Z</time>
      </trkpt>
      <trkpt lat="46.14887" lon="-1.24668">
        <ele>-2.27</ele>
        <time>2021-08-15T13:16:48Z</time>
      </trkpt>
      <trkpt lat="46.14865" lon="-1.24654">
        <ele>-2.27</ele>
        <time>2021-08-15T13:16:56Z</time>
      </trkpt>
      <trkpt lat="46.14832" lon="-1.2463">
        <ele>-3.23</ele>
        <time>2021-08-15T13:17:09Z</time>
      </trkpt>
      <trkpt lat="46.14813" lon="-1.24596">
        <ele>-3.23</ele>
        <time>2021-08-15T13:17:22Z</time>
      </trkpt>
      <trkpt lat="46.14806" lon="-1.24584">
        <ele>-3.23</ele>
        <time>2021-08-15T13:17:27Z</time>
      </trkpt>
      <trkpt lat="46.14784" lon="-1.24554">
        <ele>-3.23</ele>
        <time>2021-08-15T13:17:40Z</time>
      </trkpt>
      <trkpt lat="46.14759" lon="-1.24534">
        <ele>-2.27</ele>
        <time>2021-08-15T13:17:52Z</time>
      </trkpt>
      <trkpt lat="46.14741" lon="-1.2451">
        <ele>-3.23</ele>
        <time>2021-08-15T13:18:03Z</time>
      </trkpt>
      <trkpt lat="46.1473" lon="-1.24498">
        <ele>-1.79</ele>
        <time>2021-08-15T13:18:08Z</time>
      </trkpt>
      <trkpt lat="46.14707" lon="-1.24474">
        <ele>-3.23</ele>
        <time>2021-08-15T13:18:19Z</time>
      </trkpt>
      <trkpt lat="46.14705" lon="-1.24471">
        <ele>-3.23</ele>
        <time>2021-08-15T13:18:20Z</time>
      </trkpt>
      <trkpt lat="46.14693" lon="-1.2444">
        <ele>-2.27</ele>
        <time>2021-08-15T13:18:30Z</time>
      </trkpt>
      <trkpt lat="46.1468" lon="-1.24403">
        <ele>-3.23</ele>
        <time>2021-08-15T13:18:41Z</time>
      </trkpt>
      <trkpt lat="46.14674" lon="-1.24385">
        <ele>-1.79</ele>
        <time>2021-08-15T13:18:46Z</time>
      </trkpt>
      <trkpt lat="46.14667" lon="-1.24372">
        <ele>-3.71</ele>
        <time>2021-08-15T13:18:50Z</time>
      </trkpt>
      <trkpt lat="46.14662" lon="-1.24359">
        <ele>-2.27</ele>
        <time>2021-08-15T13:18:54Z</time>
      </trkpt>
      <trkpt lat="46.14655" lon="-1.24339">
        <ele>-3.23</ele>
        <time>2021-08-15T13:19:00Z</time>
      </trkpt>
      <trkpt lat="46.14648" lon="-1.24324">
        <ele>-2.27</ele>
        <time>2021-08-15T13:19:05Z</time>
      </trkpt>
      <trkpt lat="46.14634" lon="-1.24291">
        <ele>-3.23</ele>
        <time>2021-08-15T13:19:16Z</time>
      </trkpt>
      <trkpt lat="46.1462" lon="-1.24248">
        <ele>-3.23</ele>
        <time>2021-08-15T13:19:30Z</time>
      </trkpt>
      <trkpt lat="46.1461" lon="-1.24226">
        <ele>-1.79</ele>
        <time>2021-08-15T13:19:38Z</time>
      </trkpt>
      <trkpt lat="46.14602" lon="-1.24215">
        <ele>-1.79</ele>
        <time>2021-08-15T13:19:42Z</time>
      </trkpt>
      <trkpt lat="46.14593" lon="-1.24199">
        <ele>-1.79</ele>
        <time>2021-08-15T13:19:48Z</time>
      </trkpt>
      <trkpt lat="46.14576" lon="-1.2417">
        <ele>-1.79</ele>
        <time>2021-08-15T13:19:59Z</time>
      </trkpt>
      <trkpt lat="46.14569" lon="-1.24156">
        <ele>-2.75</ele>
        <time>2021-08-15T13:20:04Z</time>
      </trkpt>
      <trkpt lat="46.14566" lon="-1.24149">
        <ele>-1.3</ele>
        <time>2021-08-15T13:20:06Z</time>
      </trkpt>
      <trkpt lat="46.14559" lon="-1.24141">
        <ele>-1.3</ele>
        <time>2021-08-15T13:20:09Z</time>
      </trkpt>
      <trkpt lat="46.14555" lon="-1.24132">
        <ele>-2.75</ele>
        <time>2021-08-15T13:20:12Z</time>
      </trkpt>
      <trkpt lat="46.14542" lon="-1.24091">
        <ele>-2.75</ele>
        <time>2021-08-15T13:20:25Z</time>
      </trkpt>
      <trkpt lat="46.14536" lon="-1.24066">
        <ele>-3.23</ele>
        <time>2021-08-15T13:20:33Z</time>
      </trkpt>
      <trkpt lat="46.14526" lon="-1.24037">
        <ele>-1.79</ele>
        <time>2021-08-15T13:20:42Z</time>
      </trkpt>
      <trkpt lat="46.14509" lon="-1.24008">
        <ele>-1.3</ele>
        <time>2021-08-15T13:20:52Z</time>
      </trkpt>
      <trkpt lat="46.14491" lon="-1.2398">
        <ele>-2.27</ele>
        <time>2021-08-15T13:21:02Z</time>
      </trkpt>
      <trkpt lat="46.14472" lon="-1.2395">
        <ele>-1.3</ele>
        <time>2021-08-15T13:21:13Z</time>
      </trkpt>
      <trkpt lat="46.14467" lon="-1.23941">
        <ele>-1.3</ele>
        <time>2021-08-15T13:21:16Z</time>
      </trkpt>
      <trkpt lat="46.14452" lon="-1.2393">
        <ele>-0.34</ele>
        <time>2021-08-15T13:21:22Z</time>
      </trkpt>
      <trkpt lat="46.14422" lon="-1.23904">
        <ele>-3.23</ele>
        <time>2021-08-15T13:21:35Z</time>
      </trkpt>
      <trkpt lat="46.14409" lon="-1.23878">
        <ele>-3.71</ele>
        <time>2021-08-15T13:21:44Z</time>
      </trkpt>
      <trkpt lat="46.14403" lon="-1.2383">
        <ele>-3.71</ele>
        <time>2021-08-15T13:21:58Z</time>
      </trkpt>
      <trkpt lat="46.14398" lon="-1.2379">
        <ele>-3.23</ele>
        <time>2021-08-15T13:22:11Z</time>
      </trkpt>
      <trkpt lat="46.14395" lon="-1.2377">
        <ele>-1.79</ele>
        <time>2021-08-15T13:22:17Z</time>
      </trkpt>
      <trkpt lat="46.14394" lon="-1.23764">
        <ele>-3.23</ele>
        <time>2021-08-15T13:22:19Z</time>
      </trkpt>
      <trkpt lat="46.14393" lon="-1.23723">
        <ele>-3.23</ele>
        <time>2021-08-15T13:22:34Z</time>
      </trkpt>
      <trkpt lat="46.14384" lon="-1.23688">
        <ele>-2.27</ele>
        <time>2021-08-15T13:22:46Z</time>
      </trkpt>
      <trkpt lat="46.14379" lon="-1.23658">
        <ele>-2.27</ele>
        <time>2021-08-15T13:22:57Z</time>
      </trkpt>
      <trkpt lat="46.14366" lon="-1.23624">
        <ele>-2.27</ele>
        <time>2021-08-15T13:23:09Z</time>
      </trkpt>
      <trkpt lat="46.14357" lon="-1.23586">
        <ele>-2.27</ele>
        <time>2021-08-15T13:23:22Z</time>
      </trkpt>
      <trkpt lat="46.14351" lon="-1.2355">
        <ele>-2.27</ele>
        <time>2021-08-15T13:23:34Z</time>
      </trkpt>
      <trkpt lat="46.14338" lon="-1.23509">
        <ele>-2.27</ele>
        <time>2021-08-15T13:23:47Z</time>
      </trkpt>
      <trkpt lat="46.14329" lon="-1.23464">
        <ele>-2.27</ele>
        <time>2021-08-15T13:24:01Z</time>
      </trkpt>
      <trkpt lat="46.1432" lon="-1.23419">
        <ele>-2.27</ele>
        <time>2021-08-15T13:24:14Z</time>
      </trkpt>
      <trkpt lat="46.14314" lon="-1.23373">
        <ele>-2.27</ele>
        <time>2021-08-15T13:24:28Z</time>
      </trkpt>
      <trkpt lat="46.1431" lon="-1.23331">
        <ele>-3.23</ele>
        <time>2021-08-15T13:24:42Z</time>
      </trkpt>
      <trkpt lat="46.1431" lon="-1.2332">
        <ele>-3.23</ele>
        <time>2021-08-15T13:24:46Z</time>
      </trkpt>
      <trkpt lat="46.14306" lon="-1.23293">
        <ele>-3.23</ele>
        <time>2021-08-15T13:24:55Z</time>
      </trkpt>
      <trkpt lat="46.14302" lon="-1.2325">
        <ele>-3.23</ele>
        <time>2021-08-15T13:25:09Z</time>
      </trkpt>
      <trkpt lat="46.14301" lon="-1.23217">
        <ele>-3.71</ele>
        <time>2021-08-15T13:25:21Z</time>
      </trkpt>
      <trkpt lat="46.143" lon="-1.23177">
        <ele>-2.75</ele>
        <time>2021-08-15T13:25:36Z</time>
      </trkpt>
      <trkpt lat="46.14295" lon="-1.23146">
        <ele>-2.75</ele>
        <time>2021-08-15T13:25:48Z</time>
      </trkpt>
      <trkpt lat="46.14285" lon="-1.23109">
        <ele>-3.23</ele>
        <time>2021-08-15T13:26:01Z</time>
      </trkpt>
      <trkpt lat="46.14286" lon="-1.23072">
        <ele>-3.23</ele>
        <time>2021-08-15T13:26:15Z</time>
      </trkpt>
      <trkpt lat="46.14285" lon="-1.23033">
        <ele>-3.23</ele>
        <time>2021-08-15T13:26:28Z</time>
      </trkpt>
      <trkpt lat="46.14283" lon="-1.22988">
        <ele>-3.23</ele>
        <time>2021-08-15T13:26:43Z</time>
      </trkpt>
      <trkpt lat="46.14277" lon="-1.22942">
        <ele>-3.23</ele>
        <time>2021-08-15T13:26:59Z</time>
      </trkpt>
      <trkpt lat="46.14271" lon="-1.22936">
        <ele>-2.27</ele>
        <time>2021-08-15T13:27:02Z</time>
      </trkpt>
      <trkpt lat="46.1427" lon="-1.22934">
        <ele>-2.27</ele>
        <time>2021-08-15T13:27:03Z</time>
      </trkpt>
      <trkpt lat="46.14272" lon="-1.22919">
        <ele>-2.27</ele>
        <time>2021-08-15T13:27:08Z</time>
      </trkpt>
      <trkpt lat="46.14272" lon="-1.22886">
        <ele>-3.23</ele>
        <time>2021-08-15T13:27:19Z</time>
      </trkpt>
      <trkpt lat="46.14271" lon="-1.22858">
        <ele>-3.23</ele>
        <time>2021-08-15T13:27:28Z</time>
      </trkpt>
      <trkpt lat="46.14271" lon="-1.22847">
        <ele>-3.23</ele>
        <time>2021-08-15T13:27:32Z</time>
      </trkpt>
      <trkpt lat="46.14263" lon="-1.22804">
        <ele>-2.75</ele>
        <time>2021-08-15T13:27:47Z</time>
      </trkpt>
      <trkpt lat="46.14258" lon="-1.22759">
        <ele>-2.75</ele>
        <time>2021-08-15T13:28:02Z</time>
      </trkpt>
      <trkpt lat="46.14259" lon="-1.22714">
        <ele>-2.75</ele>
        <time>2021-08-15T13:28:17Z</time>
      </trkpt>
      <trkpt lat="46.14257" lon="-1.22666">
        <ele>-3.23</ele>
        <time>2021-08-15T13:28:33Z</time>
      </trkpt>
      <trkpt lat="46.14247" lon="-1.22619">
        <ele>-3.23</ele>
        <time>2021-08-15T13:28:48Z</time>
      </trkpt>
      <trkpt lat="46.14247" lon="-1.22571">
        <ele>-3.23</ele>
        <time>2021-08-15T13:29:04Z</time>
      </trkpt>
      <trkpt lat="46.1425" lon="-1.22525">
        <ele>-3.23</ele>
        <time>2021-08-15T13:29:19Z</time>
      </trkpt>
      <trkpt lat="46.14248" lon="-1.22486">
        <ele>-3.23</ele>
        <time>2021-08-15T13:29:32Z</time>
      </trkpt>
      <trkpt lat="46.14247" lon="-1.22446">
        <ele>-3.23</ele>
        <time>2021-08-15T13:29:46Z</time>
      </trkpt>
      <trkpt lat="46.14242" lon="-1.22403">
        <ele>-3.23</ele>
        <time>2021-08-15T13:30:01Z</time>
      </trkpt>
      <trkpt lat="46.14237" lon="-1.22372">
        <ele>-3.23</ele>
        <time>2021-08-15T13:30:12Z</time>
      </trkpt>
      <trkpt lat="46.14228" lon="-1.2234">
        <ele>-3.23</ele>
        <time>2021-08-15T13:30:25Z</time>
      </trkpt>
      <trkpt lat="46.14226" lon="-1.22306">
        <ele>-3.23</ele>
        <time>2021-08-15T13:30:38Z</time>
      </trkpt>
      <trkpt lat="46.14231" lon="-1.22261">
        <ele>-3.23</ele>
        <time>2021-08-15T13:30:54Z</time>
      </trkpt>
      <trkpt lat="46.14234" lon="-1.22221">
        <ele>-3.23</ele>
        <time>2021-08-15T13:31:08Z</time>
      </trkpt>
      <trkpt lat="46.14233" lon="-1.22189">
        <ele>-3.23</ele>
        <time>2021-08-15T13:31:20Z</time>
      </trkpt>
      <trkpt lat="46.14232" lon="-1.22144">
        <ele>-3.23</ele>
        <time>2021-08-15T13:31:36Z</time>
      </trkpt>
      <trkpt lat="46.14229" lon="-1.221">
        <ele>-3.23</ele>
        <time>2021-08-15T13:31:52Z</time>
      </trkpt>
      <trkpt lat="46.14227" lon="-1.22065">
        <ele>-3.23</ele>
        <time>2021-08-15T13:32:05Z</time>
      </trkpt>
      <trkpt lat="46.14224" lon="-1.22032">
        <ele>-3.23</ele>
        <time>2021-08-15T13:32:18Z</time>
      </trkpt>
      <trkpt lat="46.14217" lon="-1.21987">
        <ele>-3.23</ele>
        <time>2021-08-15T13:32:34Z</time>
      </trkpt>
      <trkpt lat="46.14212" lon="-1.21957">
        <ele>-3.23</ele>
        <time>2021-08-15T13:32:47Z</time>
      </trkpt>
      <trkpt lat="46.14205" lon="-1.21926">
        <ele>-3.23</ele>
        <time>2021-08-15T13:33:00Z</time>
      </trkpt>
      <trkpt lat="46.14195" lon="-1.219">
        <ele>-3.23</ele>
        <time>2021-08-15T13:33:10Z</time>
      </trkpt>
      <trkpt lat="46.14188" lon="-1.21866">
        <ele>-3.23</ele>
        <time>2021-08-15T13:33:22Z</time>
      </trkpt>
      <trkpt lat="46.14178" lon="-1.2183">
        <ele>-2.75</ele>
        <time>2021-08-15T13:33:35Z</time>
      </trkpt>
      <trkpt lat="46.14169" lon="-1.21789">
        <ele>-2.75</ele>
        <time>2021-08-15T13:33:50Z</time>
      </trkpt>
      <trkpt lat="46.14167" lon="-1.21748">
        <ele>-2.75</ele>
        <time>2021-08-15T13:34:05Z</time>
      </trkpt>
      <trkpt lat="46.1417" lon="-1.21706">
        <ele>-2.75</ele>
        <time>2021-08-15T13:34:21Z</time>
      </trkpt>
      <trkpt lat="46.14166" lon="-1.21661">
        <ele>-2.75</ele>
        <time>2021-08-15T13:34:36Z</time>
      </trkpt>
      <trkpt lat="46.14161" lon="-1.21626">
        <ele>-2.75</ele>
        <time>2021-08-15T13:34:49Z</time>
      </trkpt>
      <trkpt lat="46.1416" lon="-1.21591">
        <ele>-2.75</ele>
        <time>2021-08-15T13:35:02Z</time>
      </trkpt>
      <trkpt lat="46.14166" lon="-1.21555">
        <ele>-2.75</ele>
        <time>2021-08-15T13:35:15Z</time>
      </trkpt>
      <trkpt lat="46.14171" lon="-1.2152">
        <ele>-2.75</ele>
        <time>2021-08-15T13:35:28Z</time>
      </trkpt>
      <trkpt lat="46.14163" lon="-1.21484">
        <ele>-2.75</ele>
        <time>2021-08-15T13:35:41Z</time>
      </trkpt>
      <trkpt lat="46.14154" lon="-1.21445">
        <ele>-2.75</ele>
        <time>2021-08-15T13:35:55Z</time>
      </trkpt>
      <trkpt lat="46.14148" lon="-1.2141">
        <ele>-2.75</ele>
        <time>2021-08-15T13:36:07Z</time>
      </trkpt>
      <trkpt lat="46.14137" lon="-1.21373">
        <ele>-2.75</ele>
        <time>2021-08-15T13:36:20Z</time>
      </trkpt>
      <trkpt lat="46.1413" lon="-1.21339">
        <ele>-2.75</ele>
        <time>2021-08-15T13:36:32Z</time>
      </trkpt>
      <trkpt lat="46.14126" lon="-1.21304">
        <ele>-3.23</ele>
        <time>2021-08-15T13:36:45Z</time>
      </trkpt>
      <trkpt lat="46.14122" lon="-1.21266">
        <ele>-3.23</ele>
        <time>2021-08-15T13:36:58Z</time>
      </trkpt>
      <trkpt lat="46.14124" lon="-1.21228">
        <ele>-3.23</ele>
        <time>2021-08-15T13:37:12Z</time>
      </trkpt>
      <trkpt lat="46.14126" lon="-1.21186">
        <ele>-3.23</ele>
        <time>2021-08-15T13:37:26Z</time>
      </trkpt>
      <trkpt lat="46.14128" lon="-1.21141">
        <ele>-3.23</ele>
        <time>2021-08-15T13:37:42Z</time>
      </trkpt>
      <trkpt lat="46.14128" lon="-1.21099">
        <ele>-2.27</ele>
        <time>2021-08-15T13:37:56Z</time>
      </trkpt>
      <trkpt lat="46.14123" lon="-1.21068">
        <ele>-2.27</ele>
        <time>2021-08-15T13:38:07Z</time>
      </trkpt>
      <trkpt lat="46.14115" lon="-1.2103">
        <ele>-2.27</ele>
        <time>2021-08-15T13:38:21Z</time>
      </trkpt>
      <trkpt lat="46.14114" lon="-1.20983">
        <ele>-2.27</ele>
        <time>2021-08-15T13:38:38Z</time>
      </trkpt>
      <trkpt lat="46.14111" lon="-1.20943">
        <ele>-2.27</ele>
        <time>2021-08-15T13:38:53Z</time>
      </trkpt>
      <trkpt lat="46.14104" lon="-1.20914">
        <ele>-2.27</ele>
        <time>2021-08-15T13:39:04Z</time>
      </trkpt>
      <trkpt lat="46.14091" lon="-1.20886">
        <ele>-1.79</ele>
        <time>2021-08-15T13:39:16Z</time>
      </trkpt>
      <trkpt lat="46.14085" lon="-1.20858">
        <ele>-2.75</ele>
        <time>2021-08-15T13:39:28Z</time>
      </trkpt>
      <trkpt lat="46.14091" lon="-1.20827">
        <ele>-2.75</ele>
        <time>2021-08-15T13:39:39Z</time>
      </trkpt>
      <trkpt lat="46.14096" lon="-1.20787">
        <ele>-2.75</ele>
        <time>2021-08-15T13:39:52Z</time>
      </trkpt>
      <trkpt lat="46.14098" lon="-1.2075">
        <ele>-2.75</ele>
        <time>2021-08-15T13:40:04Z</time>
      </trkpt>
      <trkpt lat="46.14098" lon="-1.20719">
        <ele>-2.75</ele>
        <time>2021-08-15T13:40:15Z</time>
      </trkpt>
      <trkpt lat="46.14099" lon="-1.20689">
        <ele>-2.75</ele>
        <time>2021-08-15T13:40:27Z</time>
      </trkpt>
      <trkpt lat="46.14098" lon="-1.20647">
        <ele>-2.75</ele>
        <time>2021-08-15T13:40:41Z</time>
      </trkpt>
      <trkpt lat="46.14101" lon="-1.20614">
        <ele>-2.75</ele>
        <time>2021-08-15T13:40:52Z</time>
      </trkpt>
      <trkpt lat="46.141" lon="-1.20583">
        <ele>-2.75</ele>
        <time>2021-08-15T13:41:03Z</time>
      </trkpt>
      <trkpt lat="46.141" lon="-1.2055">
        <ele>-2.75</ele>
        <time>2021-08-15T13:41:15Z</time>
      </trkpt>
      <trkpt lat="46.14105" lon="-1.20516">
        <ele>-2.75</ele>
        <time>2021-08-15T13:41:29Z</time>
      </trkpt>
      <trkpt lat="46.1411" lon="-1.20477">
        <ele>-2.75</ele>
        <time>2021-08-15T13:41:43Z</time>
      </trkpt>
      <trkpt lat="46.14111" lon="-1.20444">
        <ele>-2.75</ele>
        <time>2021-08-15T13:41:54Z</time>
      </trkpt>
      <trkpt lat="46.14113" lon="-1.20404">
        <ele>-2.75</ele>
        <time>2021-08-15T13:42:08Z</time>
      </trkpt>
      <trkpt lat="46.14119" lon="-1.20372">
        <ele>-2.75</ele>
        <time>2021-08-15T13:42:20Z</time>
      </trkpt>
      <trkpt lat="46.14125" lon="-1.20341">
        <ele>-2.75</ele>
        <time>2021-08-15T13:42:32Z</time>
      </trkpt>
      <trkpt lat="46.14132" lon="-1.20305">
        <ele>-2.75</ele>
        <time>2021-08-15T13:42:45Z</time>
      </trkpt>
      <trkpt lat="46.14141" lon="-1.20259">
        <ele>-2.75</ele>
        <time>2021-08-15T13:43:00Z</time>
      </trkpt>
      <trkpt lat="46.14144" lon="-1.20214">
        <ele>-2.75</ele>
        <time>2021-08-15T13:43:15Z</time>
      </trkpt>
      <trkpt lat="46.14147" lon="-1.20166">
        <ele>-2.75</ele>
        <time>2021-08-15T13:43:31Z</time>
      </trkpt>
      <trkpt lat="46.14149" lon="-1.20127">
        <ele>-2.75</ele>
        <time>2021-08-15T13:43:44Z</time>
      </trkpt>
      <trkpt lat="46.14146" lon="-1.20086">
        <ele>-2.75</ele>
        <time>2021-08-15T13:43:58Z</time>
      </trkpt>
      <trkpt lat="46.14147" lon="-1.20043">
        <ele>-2.75</ele>
        <time>2021-08-15T13:44:13Z</time>
      </trkpt>
      <trkpt lat="46.14147" lon="-1.19999">
        <ele>-2.75</ele>
        <time>2021-08-15T13:44:28Z</time>
      </trkpt>
      <trkpt lat="46.14147" lon="-1.19946">
        <ele>-2.75</ele>
        <time>2021-08-15T13:44:45Z</time>
      </trkpt>
      <trkpt lat="46.14146" lon="-1.19896">
        <ele>-2.75</ele>
        <time>2021-08-15T13:45:01Z</time>
      </trkpt>
      <trkpt lat="46.14145" lon="-1.19853">
        <ele>-2.75</ele>
        <time>2021-08-15T13:45:16Z</time>
      </trkpt>
      <trkpt lat="46.14149" lon="-1.19811">
        <ele>-2.75</ele>
        <time>2021-08-15T13:45:31Z</time>
      </trkpt>
      <trkpt lat="46.14155" lon="-1.19782">
        <ele>-2.75</ele>
        <time>2021-08-15T13:45:42Z</time>
      </trkpt>
      <trkpt lat="46.14161" lon="-1.19746">
        <ele>-2.75</ele>
        <time>2021-08-15T13:45:55Z</time>
      </trkpt>
      <trkpt lat="46.14163" lon="-1.19719">
        <ele>-2.75</ele>
        <time>2021-08-15T13:46:05Z</time>
      </trkpt>
      <trkpt lat="46.14166" lon="-1.19683">
        <ele>-2.75</ele>
        <time>2021-08-15T13:46:19Z</time>
      </trkpt>
      <trkpt lat="46.1417" lon="-1.19651">
        <ele>-2.75</ele>
        <time>2021-08-15T13:46:31Z</time>
      </trkpt>
      <trkpt lat="46.14175" lon="-1.19611">
        <ele>-2.75</ele>
        <time>2021-08-15T13:46:45Z</time>
      </trkpt>
      <trkpt lat="46.14173" lon="-1.19578">
        <ele>-2.75</ele>
        <time>2021-08-15T13:46:56Z</time>
      </trkpt>
      <trkpt lat="46.1417" lon="-1.19552">
        <ele>-2.75</ele>
        <time>2021-08-15T13:47:06Z</time>
      </trkpt>
      <trkpt lat="46.1417" lon="-1.19521">
        <ele>-2.75</ele>
        <time>2021-08-15T13:47:17Z</time>
      </trkpt>
      <trkpt lat="46.14169" lon="-1.19487">
        <ele>-2.75</ele>
        <time>2021-08-15T13:47:29Z</time>
      </trkpt>
      <trkpt lat="46.14175" lon="-1.19452">
        <ele>-2.75</ele>
        <time>2021-08-15T13:47:42Z</time>
      </trkpt>
      <trkpt lat="46.14179" lon="-1.19415">
        <ele>-2.75</ele>
        <time>2021-08-15T13:47:55Z</time>
      </trkpt>
      <trkpt lat="46.14178" lon="-1.19375">
        <ele>-2.75</ele>
        <time>2021-08-15T13:48:09Z</time>
      </trkpt>
      <trkpt lat="46.14173" lon="-1.19336">
        <ele>-2.75</ele>
        <time>2021-08-15T13:48:23Z</time>
      </trkpt>
      <trkpt lat="46.1417" lon="-1.19291">
        <ele>-2.75</ele>
        <time>2021-08-15T13:48:39Z</time>
      </trkpt>
      <trkpt lat="46.14167" lon="-1.19254">
        <ele>-2.75</ele>
        <time>2021-08-15T13:48:53Z</time>
      </trkpt>
      <trkpt lat="46.14164" lon="-1.19224">
        <ele>-2.75</ele>
        <time>2021-08-15T13:49:05Z</time>
      </trkpt>
      <trkpt lat="46.1416" lon="-1.19194">
        <ele>-2.75</ele>
        <time>2021-08-15T13:49:17Z</time>
      </trkpt>
      <trkpt lat="46.14157" lon="-1.19164">
        <ele>-2.75</ele>
        <time>2021-08-15T13:49:30Z</time>
      </trkpt>
      <trkpt lat="46.14159" lon="-1.19139">
        <ele>-2.75</ele>
        <time>2021-08-15T13:49:41Z</time>
      </trkpt>
      <trkpt lat="46.14164" lon="-1.19101">
        <ele>-2.75</ele>
        <time>2021-08-15T13:49:56Z</time>
      </trkpt>
      <trkpt lat="46.14167" lon="-1.19062">
        <ele>-2.75</ele>
        <time>2021-08-15T13:50:10Z</time>
      </trkpt>
      <trkpt lat="46.14165" lon="-1.19015">
        <ele>-2.75</ele>
        <time>2021-08-15T13:50:27Z</time>
      </trkpt>
      <trkpt lat="46.14163" lon="-1.18976">
        <ele>-2.75</ele>
        <time>2021-08-15T13:50:42Z</time>
      </trkpt>
      <trkpt lat="46.14168" lon="-1.18942">
        <ele>-2.27</ele>
        <time>2021-08-15T13:50:57Z</time>
      </trkpt>
      <trkpt lat="46.14178" lon="-1.18906">
        <ele>-2.27</ele>
        <time>2021-08-15T13:51:12Z</time>
      </trkpt>
      <trkpt lat="46.14188" lon="-1.18863">
        <ele>-2.27</ele>
        <time>2021-08-15T13:51:29Z</time>
      </trkpt>
      <trkpt lat="46.14197" lon="-1.18834">
        <ele>-2.27</ele>
        <time>2021-08-15T13:51:40Z</time>
      </trkpt>
      <trkpt lat="46.14203" lon="-1.18803">
        <ele>-2.75</ele>
        <time>2021-08-15T13:51:51Z</time>
      </trkpt>
      <trkpt lat="46.14209" lon="-1.18767">
        <ele>-2.75</ele>
        <time>2021-08-15T13:52:05Z</time>
      </trkpt>
      <trkpt lat="46.14219" lon="-1.18724">
        <ele>-1.79</ele>
        <time>2021-08-15T13:52:23Z</time>
      </trkpt>
      <trkpt lat="46.14224" lon="-1.1869">
        <ele>-1.79</ele>
        <time>2021-08-15T13:52:37Z</time>
      </trkpt>
      <trkpt lat="46.14231" lon="-1.18658">
        <ele>-1.79</ele>
        <time>2021-08-15T13:52:52Z</time>
      </trkpt>
      <trkpt lat="46.1424" lon="-1.18624">
        <ele>-1.79</ele>
        <time>2021-08-15T13:53:07Z</time>
      </trkpt>
      <trkpt lat="46.14245" lon="-1.18581">
        <ele>-1.79</ele>
        <time>2021-08-15T13:53:22Z</time>
      </trkpt>
      <trkpt lat="46.14242" lon="-1.18542">
        <ele>-2.75</ele>
        <time>2021-08-15T13:53:35Z</time>
      </trkpt>
      <trkpt lat="46.1424" lon="-1.18532">
        <ele>-1.79</ele>
        <time>2021-08-15T13:53:39Z</time>
      </trkpt>
      <trkpt lat="46.14242" lon="-1.18504">
        <ele>-1.79</ele>
        <time>2021-08-15T13:53:50Z</time>
      </trkpt>
      <trkpt lat="46.14245" lon="-1.18467">
        <ele>-1.79</ele>
        <time>2021-08-15T13:54:03Z</time>
      </trkpt>
      <trkpt lat="46.14252" lon="-1.18428">
        <ele>-1.79</ele>
        <time>2021-08-15T13:54:18Z</time>
      </trkpt>
      <trkpt lat="46.1426" lon="-1.18395">
        <ele>-1.79</ele>
        <time>2021-08-15T13:54:31Z</time>
      </trkpt>
      <trkpt lat="46.14269" lon="-1.18368">
        <ele>-1.79</ele>
        <time>2021-08-15T13:54:42Z</time>
      </trkpt>
      <trkpt lat="46.14281" lon="-1.18328">
        <ele>-1.79</ele>
        <time>2021-08-15T13:54:58Z</time>
      </trkpt>
      <trkpt lat="46.14287" lon="-1.18289">
        <ele>-1.79</ele>
        <time>2021-08-15T13:55:12Z</time>
      </trkpt>
      <trkpt lat="46.14288" lon="-1.18258">
        <ele>-1.79</ele>
        <time>2021-08-15T13:55:24Z</time>
      </trkpt>
      <trkpt lat="46.14286" lon="-1.18221">
        <ele>-2.75</ele>
        <time>2021-08-15T13:55:37Z</time>
      </trkpt>
      <trkpt lat="46.14288" lon="-1.18189">
        <ele>-2.75</ele>
        <time>2021-08-15T13:55:49Z</time>
      </trkpt>
      <trkpt lat="46.1429" lon="-1.18144">
        <ele>-2.75</ele>
        <time>2021-08-15T13:56:05Z</time>
      </trkpt>
      <trkpt lat="46.14293" lon="-1.18109">
        <ele>-2.75</ele>
        <time>2021-08-15T13:56:18Z</time>
      </trkpt>
      <trkpt lat="46.14304" lon="-1.1808">
        <ele>-2.75</ele>
        <time>2021-08-15T13:56:31Z</time>
      </trkpt>
      <trkpt lat="46.1431" lon="-1.18053">
        <ele>-1.79</ele>
        <time>2021-08-15T13:56:42Z</time>
      </trkpt>
      <trkpt lat="46.14304" lon="-1.18017">
        <ele>-1.79</ele>
        <time>2021-08-15T13:56:55Z</time>
      </trkpt>
      <trkpt lat="46.14309" lon="-1.18005">
        <ele>-0.34</ele>
        <time>2021-08-15T13:57:01Z</time>
      </trkpt>
      <trkpt lat="46.14314" lon="-1.18005">
        <ele>0.14</ele>
        <time>2021-08-15T13:57:04Z</time>
      </trkpt>
      <trkpt lat="46.14324" lon="-1.18014">
        <ele>-0.82</ele>
        <time>2021-08-15T13:57:12Z</time>
      </trkpt>
      <trkpt lat="46.14327" lon="-1.18019">
        <ele>-0.82</ele>
        <time>2021-08-15T13:57:16Z</time>
      </trkpt>
      <trkpt lat="46.14327" lon="-1.18033">
        <ele>-1.79</ele>
        <time>2021-08-15T13:57:29Z</time>
      </trkpt>
      <trkpt lat="46.14326" lon="-1.18043">
        <ele>-1.79</ele>
        <time>2021-08-15T13:57:43Z</time>
      </trkpt>
      <trkpt lat="46.14327" lon="-1.18044">
        <ele>0.14</ele>
        <time>2021-08-15T13:57:45Z</time>
      </trkpt>
      <trkpt lat="46.14331" lon="-1.18046">
        <ele>-1.3</ele>
        <time>2021-08-15T13:57:51Z</time>
      </trkpt>
      <trkpt lat="46.14332" lon="-1.18046">
        <ele>-1.3</ele>
        <time>2021-08-15T13:57:52Z</time>
      </trkpt>
      <trkpt lat="46.14335" lon="-1.18045">
        <ele>-2.27</ele>
        <time>2021-08-15T13:57:55Z</time>
      </trkpt>
      <trkpt lat="46.14338" lon="-1.18041">
        <ele>-2.27</ele>
        <time>2021-08-15T13:57:59Z</time>
      </trkpt>
      <trkpt lat="46.14352" lon="-1.18015">
        <ele>-1.3</ele>
        <time>2021-08-15T13:58:14Z</time>
      </trkpt>
      <trkpt lat="46.14366" lon="-1.17993">
        <ele>-2.75</ele>
        <time>2021-08-15T13:58:26Z</time>
      </trkpt>
      <trkpt lat="46.14378" lon="-1.17968">
        <ele>-2.75</ele>
        <time>2021-08-15T13:58:38Z</time>
      </trkpt>
      <trkpt lat="46.14393" lon="-1.17943">
        <ele>-2.75</ele>
        <time>2021-08-15T13:58:51Z</time>
      </trkpt>
      <trkpt lat="46.14406" lon="-1.17931">
        <ele>-1.3</ele>
        <time>2021-08-15T13:59:00Z</time>
      </trkpt>
      <trkpt lat="46.14416" lon="-1.17927">
        <ele>-1.3</ele>
        <time>2021-08-15T13:59:06Z</time>
      </trkpt>
      <trkpt lat="46.14423" lon="-1.17919">
        <ele>-2.75</ele>
        <time>2021-08-15T13:59:11Z</time>
      </trkpt>
      <trkpt lat="46.14433" lon="-1.17894">
        <ele>-2.75</ele>
        <time>2021-08-15T13:59:23Z</time>
      </trkpt>
      <trkpt lat="46.14447" lon="-1.17873">
        <ele>-2.75</ele>
        <time>2021-08-15T13:59:35Z</time>
      </trkpt>
      <trkpt lat="46.14464" lon="-1.17844">
        <ele>-2.75</ele>
        <time>2021-08-15T13:59:50Z</time>
      </trkpt>
      <trkpt lat="46.1448" lon="-1.17809">
        <ele>-2.75</ele>
        <time>2021-08-15T14:00:06Z</time>
      </trkpt>
      <trkpt lat="46.14497" lon="-1.17769">
        <ele>-2.75</ele>
        <time>2021-08-15T14:00:24Z</time>
      </trkpt>
      <trkpt lat="46.14507" lon="-1.17735">
        <ele>-2.75</ele>
        <time>2021-08-15T14:00:39Z</time>
      </trkpt>
      <trkpt lat="46.14511" lon="-1.17725">
        <ele>-1.3</ele>
        <time>2021-08-15T14:00:44Z</time>
      </trkpt>
      <trkpt lat="46.14527" lon="-1.17707">
        <ele>-2.27</ele>
        <time>2021-08-15T14:00:58Z</time>
      </trkpt>
      <trkpt lat="46.14542" lon="-1.17686">
        <ele>-2.27</ele>
        <time>2021-08-15T14:01:10Z</time>
      </trkpt>
      <trkpt lat="46.14555" lon="-1.17664">
        <ele>-2.27</ele>
        <time>2021-08-15T14:01:21Z</time>
      </trkpt>
      <trkpt lat="46.14565" lon="-1.17635">
        <ele>-2.75</ele>
        <time>2021-08-15T14:01:34Z</time>
      </trkpt>
      <trkpt lat="46.14579" lon="-1.1761">
        <ele>-2.75</ele>
        <time>2021-08-15T14:01:49Z</time>
      </trkpt>
      <trkpt lat="46.1459" lon="-1.17583">
        <ele>-2.75</ele>
        <time>2021-08-15T14:02:04Z</time>
      </trkpt>
      <trkpt lat="46.14596" lon="-1.17576">
        <ele>-1.3</ele>
        <time>2021-08-15T14:02:09Z</time>
      </trkpt>
      <trkpt lat="46.14607" lon="-1.17554">
        <ele>-2.27</ele>
        <time>2021-08-15T14:02:21Z</time>
      </trkpt>
      <trkpt lat="46.14609" lon="-1.17549">
        <ele>-1.3</ele>
        <time>2021-08-15T14:02:23Z</time>
      </trkpt>
      <trkpt lat="46.14616" lon="-1.17527">
        <ele>-2.27</ele>
        <time>2021-08-15T14:02:35Z</time>
      </trkpt>
      <trkpt lat="46.14629" lon="-1.17499">
        <ele>-2.27</ele>
        <time>2021-08-15T14:02:51Z</time>
      </trkpt>
      <trkpt lat="46.14638" lon="-1.17478">
        <ele>-2.27</ele>
        <time>2021-08-15T14:03:04Z</time>
      </trkpt>
      <trkpt lat="46.14653" lon="-1.17446">
        <ele>-2.27</ele>
        <time>2021-08-15T14:03:21Z</time>
      </trkpt>
      <trkpt lat="46.14672" lon="-1.17418">
        <ele>-2.27</ele>
        <time>2021-08-15T14:03:38Z</time>
      </trkpt>
      <trkpt lat="46.14677" lon="-1.17409">
        <ele>-2.27</ele>
        <time>2021-08-15T14:03:43Z</time>
      </trkpt>
      <trkpt lat="46.14685" lon="-1.17394">
        <ele>-2.27</ele>
        <time>2021-08-15T14:03:52Z</time>
      </trkpt>
      <trkpt lat="46.14698" lon="-1.17371">
        <ele>-0.82</ele>
        <time>2021-08-15T14:04:04Z</time>
      </trkpt>
      <trkpt lat="46.14701" lon="-1.17369">
        <ele>-2.27</ele>
        <time>2021-08-15T14:04:06Z</time>
      </trkpt>
      <trkpt lat="46.14707" lon="-1.17348">
        <ele>-2.27</ele>
        <time>2021-08-15T14:04:17Z</time>
      </trkpt>
      <trkpt lat="46.14708" lon="-1.17341">
        <ele>-2.27</ele>
        <time>2021-08-15T14:04:21Z</time>
      </trkpt>
      <trkpt lat="46.14713" lon="-1.17335">
        <ele>-2.27</ele>
        <time>2021-08-15T14:04:26Z</time>
      </trkpt>
      <trkpt lat="46.14722" lon="-1.17308">
        <ele>-2.75</ele>
        <time>2021-08-15T14:04:40Z</time>
      </trkpt>
      <trkpt lat="46.14731" lon="-1.1728">
        <ele>-2.75</ele>
        <time>2021-08-15T14:04:54Z</time>
      </trkpt>
      <trkpt lat="46.14743" lon="-1.17248">
        <ele>-2.75</ele>
        <time>2021-08-15T14:05:11Z</time>
      </trkpt>
      <trkpt lat="46.14753" lon="-1.17216">
        <ele>-1.79</ele>
        <time>2021-08-15T14:05:29Z</time>
      </trkpt>
      <trkpt lat="46.14762" lon="-1.17189">
        <ele>-1.79</ele>
        <time>2021-08-15T14:05:44Z</time>
      </trkpt>
      <trkpt lat="46.14775" lon="-1.17152">
        <ele>-1.79</ele>
        <time>2021-08-15T14:06:04Z</time>
      </trkpt>
      <trkpt lat="46.14788" lon="-1.1712">
        <ele>-1.79</ele>
        <time>2021-08-15T14:06:22Z</time>
      </trkpt>
      <trkpt lat="46.14808" lon="-1.17075">
        <ele>-1.79</ele>
        <time>2021-08-15T14:06:44Z</time>
      </trkpt>
      <trkpt lat="46.14824" lon="-1.17038">
        <ele>-1.79</ele>
        <time>2021-08-15T14:07:02Z</time>
      </trkpt>
      <trkpt lat="46.14838" lon="-1.17002">
        <ele>-1.79</ele>
        <time>2021-08-15T14:07:19Z</time>
      </trkpt>
      <trkpt lat="46.14858" lon="-1.16957">
        <ele>-1.79</ele>
        <time>2021-08-15T14:07:40Z</time>
      </trkpt>
      <trkpt lat="46.14876" lon="-1.16907">
        <ele>-1.79</ele>
        <time>2021-08-15T14:08:02Z</time>
      </trkpt>
      <trkpt lat="46.14891" lon="-1.16866">
        <ele>-1.79</ele>
        <time>2021-08-15T14:08:21Z</time>
      </trkpt>
      <trkpt lat="46.14908" lon="-1.16824">
        <ele>-1.79</ele>
        <time>2021-08-15T14:08:40Z</time>
      </trkpt>
      <trkpt lat="46.14923" lon="-1.16777">
        <ele>-1.79</ele>
        <time>2021-08-15T14:09:01Z</time>
      </trkpt>
      <trkpt lat="46.14939" lon="-1.16729">
        <ele>-1.79</ele>
        <time>2021-08-15T14:09:23Z</time>
      </trkpt>
      <trkpt lat="46.14954" lon="-1.1668">
        <ele>-1.79</ele>
        <time>2021-08-15T14:09:47Z</time>
      </trkpt>
      <trkpt lat="46.14969" lon="-1.16645">
        <ele>-1.79</ele>
        <time>2021-08-15T14:10:08Z</time>
      </trkpt>
      <trkpt lat="46.14984" lon="-1.16604">
        <ele>-1.79</ele>
        <time>2021-08-15T14:10:29Z</time>
      </trkpt>
      <trkpt lat="46.15003" lon="-1.16555">
        <ele>-1.79</ele>
        <time>2021-08-15T14:10:54Z</time>
      </trkpt>
      <trkpt lat="46.1502" lon="-1.16518">
        <ele>-1.79</ele>
        <time>2021-08-15T14:11:14Z</time>
      </trkpt>
      <trkpt lat="46.15038" lon="-1.16479">
        <ele>-1.79</ele>
        <time>2021-08-15T14:11:36Z</time>
      </trkpt>
      <trkpt lat="46.15052" lon="-1.16448">
        <ele>-1.3</ele>
        <time>2021-08-15T14:11:55Z</time>
      </trkpt>
      <trkpt lat="46.15069" lon="-1.16411">
        <ele>-2.27</ele>
        <time>2021-08-15T14:12:15Z</time>
      </trkpt>
      <trkpt lat="46.15072" lon="-1.16404">
        <ele>-1.3</ele>
        <time>2021-08-15T14:12:18Z</time>
      </trkpt>
      <trkpt lat="46.15092" lon="-1.16348">
        <ele>-1.3</ele>
        <time>2021-08-15T14:12:40Z</time>
      </trkpt>
      <trkpt lat="46.15115" lon="-1.16304">
        <ele>-1.3</ele>
        <time>2021-08-15T14:12:58Z</time>
      </trkpt>
      <trkpt lat="46.15134" lon="-1.1626">
        <ele>-1.3</ele>
        <time>2021-08-15T14:13:16Z</time>
      </trkpt>
      <trkpt lat="46.15147" lon="-1.16217">
        <ele>-1.3</ele>
        <time>2021-08-15T14:13:33Z</time>
      </trkpt>
      <trkpt lat="46.15172" lon="-1.16156">
        <ele>-1.3</ele>
        <time>2021-08-15T14:13:58Z</time>
      </trkpt>
      <trkpt lat="46.15204" lon="-1.16083">
        <ele>-1.3</ele>
        <time>2021-08-15T14:14:29Z</time>
      </trkpt>
      <trkpt lat="46.15236" lon="-1.16025">
        <ele>-1.3</ele>
        <time>2021-08-15T14:14:56Z</time>
      </trkpt>
      <trkpt lat="46.15265" lon="-1.15972">
        <ele>-1.3</ele>
        <time>2021-08-15T14:15:20Z</time>
      </trkpt>
      <trkpt lat="46.15298" lon="-1.15903">
        <ele>-1.3</ele>
        <time>2021-08-15T14:15:50Z</time>
      </trkpt>
      <trkpt lat="46.1533" lon="-1.15821">
        <ele>-1.3</ele>
        <time>2021-08-15T14:16:22Z</time>
      </trkpt>
      <trkpt lat="46.15366" lon="-1.15734">
        <ele>-0.82</ele>
        <time>2021-08-15T14:16:54Z</time>
      </trkpt>
      <trkpt lat="46.15401" lon="-1.15653">
        <ele>-0.82</ele>
        <time>2021-08-15T14:17:24Z</time>
      </trkpt>
      <trkpt lat="46.15424" lon="-1.1559">
        <ele>-0.82</ele>
        <time>2021-08-15T14:17:47Z</time>
      </trkpt>
      <trkpt lat="46.15456" lon="-1.15511">
        <ele>-0.82</ele>
        <time>2021-08-15T14:18:18Z</time>
      </trkpt>
      <trkpt lat="46.15485" lon="-1.1546">
        <ele>-0.82</ele>
        <time>2021-08-15T14:18:43Z</time>
      </trkpt>
      <trkpt lat="46.15523" lon="-1.15414">
        <ele>-0.82</ele>
        <time>2021-08-15T14:19:11Z</time>
      </trkpt>
      <trkpt lat="46.15565" lon="-1.15382">
        <ele>-0.34</ele>
        <time>2021-08-15T14:19:38Z</time>
      </trkpt>
      <trkpt lat="46.15596" lon="-1.15351">
        <ele>-0.34</ele>
        <time>2021-08-15T14:20:00Z</time>
      </trkpt>
      <trkpt lat="46.15625" lon="-1.15308">
        <ele>-0.34</ele>
        <time>2021-08-15T14:20:25Z</time>
      </trkpt>
      <trkpt lat="46.15652" lon="-1.15264">
        <ele>-0.34</ele>
        <time>2021-08-15T14:20:52Z</time>
      </trkpt>
      <trkpt lat="46.15676" lon="-1.15223">
        <ele>-0.34</ele>
        <time>2021-08-15T14:21:21Z</time>
      </trkpt>
      <trkpt lat="46.15699" lon="-1.15204">
        <ele>-0.34</ele>
        <time>2021-08-15T14:21:50Z</time>
      </trkpt>
      <trkpt lat="46.15692" lon="-1.15231">
        <ele>0.14</ele>
        <time>2021-08-15T14:22:15Z</time>
      </trkpt>
      <trkpt lat="46.15695" lon="-1.15252">
        <ele>0.14</ele>
        <time>2021-08-15T14:22:32Z</time>
      </trkpt>
      <trkpt lat="46.15701" lon="-1.15276">
        <ele>0.14</ele>
        <time>2021-08-15T14:22:49Z</time>
      </trkpt>
      <trkpt lat="46.15713" lon="-1.15304">
        <ele>0.14</ele>
        <time>2021-08-15T14:23:14Z</time>
      </trkpt>
      <trkpt lat="46.15721" lon="-1.15308">
        <ele>0.14</ele>
        <time>2021-08-15T14:23:36Z</time>
      </trkpt>
      <trkpt lat="46.15722" lon="-1.15306">
        <ele>0.14</ele>
        <time>2021-08-15T14:23:57Z</time>
      </trkpt>
      <trkpt lat="46.15721" lon="-1.15306">
        <ele>0.14</ele>
        <time>2021-08-15T14:24:26Z</time>
      </trkpt>
      <trkpt lat="46.1572" lon="-1.15305">
        <ele>-0.82</ele>
        <time>2021-08-15T14:24:53Z</time>
      </trkpt>
    </trkseg>
  </trk>
</gpx>